Time,TemperatureF,DewpointF,PressureIn,WindDirection,WindDirectionDegrees,WindSpeedMPH,WindSpeedGustMPH,Humidity,HourlyPrecipIn,Conditions,Clouds,dailyrainin,SoftwareType,DateUTC
2013-04-19 00:00:00,68.0,55.8,29.57,NW,315,21.9,21.9,65,0.00,CLR,,0.00,WeatherDisplay:10.37,2013-04-19 04:00:00,
2013-04-19 00:01:00,68.0,55.8,29.57,WSW,248,12.7,12.7,65,0.00,CLR,,0.00,WeatherDisplay:10.37,2013-04-19 04:01:00,
2013-04-19 00:06:00,68.0,55.8,29.57,SW,225,9.2,9.2,65,0.00,CLR,,0.00,WeatherDisplay:10.37,2013-04-19 04:06:00,
2013-04-19 00:11:00,68.0,55.8,29.60,WNW,292,11.5,11.5,65,0.00,CLR,,0.00,WeatherDisplay:10.37,2013-04-19 04:11:00,
2013-04-19 00:12:00,68.0,55.8,29.60,WSW,248,11.5,11.5,65,0.00,CLR,,0.00,WeatherDisplay:10.37,2013-04-19 04:12:00,
2013-04-19 00:16:00,68.2,56.0,29.60,WSW,248,23.0,23.0,65,0.00,CLR,,0.00,WeatherDisplay:10.37,2013-04-19 04:16:00,
2013-04-19 00:17:00,68.2,56.0,29.60,WNW,292,12.7,12.7,65,0.00,CLR,,0.00,WeatherDisplay:10.37,2013-04-19 04:17:00,
2013-04-19 00:21:00,68.2,56.0,29.60,WSW,248,10.4,10.4,65,0.00,CLR,,0.00,WeatherDisplay:10.37,2013-04-19 04:21:00,
2013-04-19 00:22:00,68.2,56.0,29.60,NW,315,13.0,13.0,65,0.00,CLR,,0.00,WeatherDisplay:10.37,2013-04-19 04:22:00,
2013-04-19 00:26:00,68.0,55.8,29.57,WNW,292,17.5,17.5,65,0.00,CLR,,0.00,WeatherDisplay:10.37,2013-04-19 04:26:00,
2013-04-19 00:27:00,68.0,55.8,29.57,NW,315,17.3,17.3,65,0.00,CLR,,0.00,WeatherDisplay:10.37,2013-04-19 04:27:00,
2013-04-19 00:31:00,68.2,55.5,29.57,West,270,11.5,11.5,64,0.00,CLR,,0.00,WeatherDisplay:10.37,2013-04-19 04:31:00,
2013-04-19 00:32:00,68.0,55.4,29.57,WNW,292,8.7,8.7,64,0.00,CLR,,0.00,WeatherDisplay:10.37,2013-04-19 04:32:00,
2013-04-19 00:36:00,68.0,55.4,29.57,WNW,292,17.3,17.3,64,0.00,CLR,,0.00,WeatherDisplay:10.37,2013-04-19 04:36:00,
2013-04-19 00:37:00,68.2,55.5,29.57,NW,315,17.3,17.3,64,0.00,CLR,,0.00,WeatherDisplay:10.37,2013-04-19 04:37:00,
2013-04-19 00:38:00,68.0,55.4,29.57,SSW,202,9.2,9.2,64,0.00,CLR,,0.00,WeatherDisplay:10.37,2013-04-19 04:38:00,
2013-04-19 00:41:00,68.2,55.5,29.57,WNW,292,18.4,18.4,64,0.00,CLR,,0.00,WeatherDisplay:10.37,2013-04-19 04:41:00,
2013-04-19 00:42:00,68.2,55.5,29.57,WSW,248,19.6,19.6,64,0.00,CLR,,0.00,WeatherDisplay:10.37,2013-04-19 04:42:00,
2013-04-19 00:43:00,68.2,55.5,29.57,WNW,292,13.8,13.8,64,0.00,CLR,,0.00,WeatherDisplay:10.37,2013-04-19 04:43:00,
2013-04-19 00:46:00,68.2,55.5,29.57,WNW,292,18.4,18.4,64,0.00,CLR,,0.00,WeatherDisplay:10.37,2013-04-19 04:46:00,
2013-04-19 00:47:00,68.2,55.5,29.57,SW,225,17.3,17.3,64,0.00,CLR,,0.00,WeatherDisplay:10.37,2013-04-19 04:47:00,
2013-04-19 00:48:00,68.2,55.5,29.57,West,270,17.3,17.3,64,0.00,CLR,,0.00,WeatherDisplay:10.37,2013-04-19 04:48:00,
2013-04-19 00:52:00,68.2,55.5,29.57,NNW,338,10.4,10.4,64,0.00,CLR,,0.00,WeatherDisplay:10.37,2013-04-19 04:52:00,
2013-04-19 00:53:00,68.2,55.5,29.57,NNW,338,11.2,11.2,64,0.00,CLR,,0.00,WeatherDisplay:10.37,2013-04-19 04:53:00,
2013-04-19 00:57:00,68.2,55.5,29.57,West,270,13.8,13.8,64,0.00,CLR,,0.00,WeatherDisplay:10.37,2013-04-19 04:57:00,
2013-04-19 00:58:00,68.2,55.5,29.57,SW,225,19.6,19.6,64,0.00,CLR,,0.00,WeatherDisplay:10.37,2013-04-19 04:58:00,
2013-04-19 00:59:00,68.2,55.5,29.57,West,270,11.5,11.5,64,0.00,CLR,,0.00,WeatherDisplay:10.37,2013-04-19 04:59:00,
2013-04-19 01:02:00,68.2,55.5,29.57,WNW,292,9.8,9.8,64,0.00,CLR,,0.00,WeatherDisplay:10.37,2013-04-19 05:02:00,
2013-04-19 01:03:00,68.2,55.5,29.57,West,270,14.5,14.5,64,0.00,CLR,,0.00,WeatherDisplay:10.37,2013-04-19 05:03:00,
2013-04-19 01:04:00,68.2,55.5,29.57,WSW,248,20.7,20.7,64,0.00,CLR,,0.00,WeatherDisplay:10.37,2013-04-19 05:04:00,
2013-04-19 01:07:00,68.2,55.5,29.57,NW,315,8.1,9.2,64,0.00,CLR,,0.00,WeatherDisplay:10.37,2013-04-19 05:07:00,
2013-04-19 01:08:00,68.2,55.5,29.57,WNW,292,20.7,20.7,64,0.00,CLR,,0.00,WeatherDisplay:10.37,2013-04-19 05:08:00,
2013-04-19 01:09:00,68.2,55.1,29.57,WSW,248,12.7,12.7,63,0.00,CLR,,0.00,WeatherDisplay:10.37,2013-04-19 05:09:00,
2013-04-19 01:12:00,68.2,55.1,29.57,West,270,13.0,13.0,63,0.00,CLR,,0.00,WeatherDisplay:10.37,2013-04-19 05:12:00,
2013-04-19 01:13:00,68.2,55.1,29.57,WNW,292,14.0,14.0,63,0.00,CLR,,0.00,WeatherDisplay:10.37,2013-04-19 05:13:00,
2013-04-19 01:14:00,68.2,55.1,29.57,NNE,22,19.6,19.6,63,0.00,CLR,,0.00,WeatherDisplay:10.37,2013-04-19 05:14:00,
2013-04-19 01:17:00,68.4,55.3,29.57,WNW,292,12.7,12.7,63,0.00,CLR,,0.00,WeatherDisplay:10.37,2013-04-19 05:17:00,
2013-04-19 01:18:00,68.4,55.3,29.57,WSW,248,13.8,13.8,63,0.00,CLR,,0.00,WeatherDisplay:10.37,2013-04-19 05:18:00,
2013-04-19 01:19:00,68.2,55.1,29.57,WSW,248,16.1,16.1,63,0.00,CLR,,0.00,WeatherDisplay:10.37,2013-04-19 05:19:00,
2013-04-19 01:20:00,68.2,55.1,29.57,NW,315,8.1,9.7,63,0.00,CLR,,0.00,WeatherDisplay:10.37,2013-04-19 05:20:00,
2013-04-19 01:22:00,68.2,55.1,29.57,East,90,16.1,16.1,63,0.00,CLR,,0.00,WeatherDisplay:10.37,2013-04-19 05:22:00,
2013-04-19 01:23:00,68.2,55.1,29.57,WNW,292,16.1,16.1,63,0.00,CLR,,0.00,WeatherDisplay:10.37,2013-04-19 05:23:00,
2013-04-19 01:24:00,68.4,55.3,29.57,WSW,248,15.0,15.0,63,0.00,CLR,,0.00,WeatherDisplay:10.37,2013-04-19 05:24:00,
2013-04-19 01:25:00,68.4,55.3,29.54,WNW,292,13.8,13.8,63,0.00,CLR,,0.00,WeatherDisplay:10.37,2013-04-19 05:25:00,
2013-04-19 01:27:00,68.4,55.3,29.54,WSW,248,13.8,13.8,63,0.00,CLR,,0.00,WeatherDisplay:10.37,2013-04-19 05:27:00,
2013-04-19 01:28:00,68.2,55.1,29.54,WNW,292,15.0,15.0,63,0.00,CLR,,0.00,WeatherDisplay:10.37,2013-04-19 05:28:00,
2013-04-19 01:29:00,68.2,55.1,29.54,SW,225,10.4,10.4,63,0.00,CLR,,0.00,WeatherDisplay:10.37,2013-04-19 05:29:00,
2013-04-19 01:30:00,68.2,55.1,29.54,West,270,13.5,13.5,63,0.00,CLR,,0.00,WeatherDisplay:10.37,2013-04-19 05:30:00,
2013-04-19 01:33:00,68.2,55.1,29.54,WSW,248,10.4,10.4,63,0.00,CLR,,0.00,WeatherDisplay:10.37,2013-04-19 05:33:00,
2013-04-19 01:34:00,68.2,55.1,29.54,West,270,14.0,14.0,63,0.00,CLR,,0.00,WeatherDisplay:10.37,2013-04-19 05:34:00,
2013-04-19 01:35:00,68.2,55.1,29.54,WSW,248,13.8,13.8,63,0.00,CLR,,0.00,WeatherDisplay:10.37,2013-04-19 05:35:00,
2013-04-19 01:38:00,68.2,55.1,29.54,WNW,292,12.7,12.7,63,0.00,CLR,,0.00,WeatherDisplay:10.37,2013-04-19 05:38:00,
2013-04-19 01:39:00,68.2,55.1,29.54,WNW,292,12.5,12.5,63,0.00,CLR,,0.00,WeatherDisplay:10.37,2013-04-19 05:39:00,
2013-04-19 01:40:00,68.2,55.1,29.57,WSW,248,12.7,12.7,63,0.00,CLR,,0.00,WeatherDisplay:10.37,2013-04-19 05:40:00,
2013-04-19 01:43:00,68.2,54.7,29.57,West,270,9.7,9.7,62,0.00,CLR,,0.00,WeatherDisplay:10.37,2013-04-19 05:43:00,
2013-04-19 01:44:00,68.2,54.7,29.57,WNW,292,15.0,15.0,62,0.00,CLR,,0.00,WeatherDisplay:10.37,2013-04-19 05:44:00,
2013-04-19 01:45:00,68.2,54.7,29.57,WNW,292,15.6,15.6,62,0.00,CLR,,0.00,WeatherDisplay:10.37,2013-04-19 05:45:00,
2013-04-19 01:48:00,68.4,54.8,29.57,West,270,6.9,6.9,62,0.00,CLR,,0.00,WeatherDisplay:10.37,2013-04-19 05:48:00,
2013-04-19 01:49:00,68.2,54.7,29.57,SW,225,6.9,6.9,62,0.00,CLR,,0.00,WeatherDisplay:10.37,2013-04-19 05:49:00,
2013-04-19 01:50:00,68.2,54.7,29.57,WSW,248,6.0,6.0,62,0.00,CLR,,0.00,WeatherDisplay:10.37,2013-04-19 05:50:00,
2013-04-19 01:51:00,68.2,54.7,29.57,NW,315,10.9,10.9,62,0.00,CLR,,0.00,WeatherDisplay:10.37,2013-04-19 05:51:00,
2013-04-19 01:54:00,68.2,54.7,29.57,West,270,10.4,10.4,62,0.00,CLR,,0.00,WeatherDisplay:10.37,2013-04-19 05:54:00,
2013-04-19 01:55:00,68.2,54.7,29.57,West,270,16.1,16.1,62,0.00,CLR,,0.00,WeatherDisplay:10.37,2013-04-19 05:55:00,
2013-04-19 01:56:00,68.2,54.7,29.57,WNW,292,16.1,16.1,62,0.00,CLR,,0.00,WeatherDisplay:10.37,2013-04-19 05:56:00,
2013-04-19 01:59:00,68.2,54.7,29.57,WSW,248,12.7,12.7,62,0.00,CLR,,0.00,WeatherDisplay:10.37,2013-04-19 05:59:00,
2013-04-19 02:00:00,68.0,54.5,29.57,WNW,292,9.2,9.2,62,0.00,CLR,,0.00,WeatherDisplay:10.37,2013-04-19 06:00:00,
2013-04-19 02:01:00,68.0,54.5,29.57,NW,315,8.7,8.7,62,0.00,CLR,,0.00,WeatherDisplay:10.37,2013-04-19 06:01:00,
2013-04-19 02:04:00,68.0,54.5,29.57,SW,225,11.5,11.5,62,0.00,CLR,,0.00,WeatherDisplay:10.37,2013-04-19 06:04:00,
2013-04-19 02:05:00,68.0,54.5,29.57,West,270,10.4,10.4,62,0.00,CLR,,0.00,WeatherDisplay:10.37,2013-04-19 06:05:00,
2013-04-19 02:06:00,68.0,54.5,29.57,West,270,20.1,20.1,62,0.00,CLR,,0.00,WeatherDisplay:10.37,2013-04-19 06:06:00,
2013-04-19 02:09:00,68.0,54.9,29.57,WNW,292,10.4,10.4,63,0.00,CLR,,0.00,WeatherDisplay:10.37,2013-04-19 06:09:00,
2013-04-19 02:10:00,67.8,54.8,29.57,West,270,5.8,5.8,63,0.00,CLR,,0.00,WeatherDisplay:10.37,2013-04-19 06:10:00,
2013-04-19 02:11:00,67.8,54.8,29.57,WSW,248,10.4,10.4,63,0.00,CLR,,0.00,WeatherDisplay:10.37,2013-04-19 06:11:00,
2013-04-19 02:14:00,67.8,54.8,29.57,West,270,6.9,6.9,63,0.00,CLR,,0.00,WeatherDisplay:10.37,2013-04-19 06:14:00,
2013-04-19 02:15:00,67.8,54.8,29.57,WNW,292,8.1,8.1,63,0.00,CLR,,0.00,WeatherDisplay:10.37,2013-04-19 06:15:00,
2013-04-19 02:17:00,67.6,54.6,29.57,WSW,248,8.5,8.5,63,0.00,CLR,,0.00,WeatherDisplay:10.37,2013-04-19 06:17:00,
2013-04-19 02:19:00,67.6,54.6,29.57,SSW,202,8.1,8.1,63,0.00,CLR,,0.00,WeatherDisplay:10.37,2013-04-19 06:19:00,
2013-04-19 02:20:00,67.6,54.6,29.57,WNW,292,10.4,10.4,63,0.00,CLR,,0.00,WeatherDisplay:10.37,2013-04-19 06:20:00,
2013-04-19 02:22:00,67.6,55.0,29.57,West,270,5.8,5.8,64,0.00,CLR,,0.00,WeatherDisplay:10.37,2013-04-19 06:22:00,
2013-04-19 02:24:00,67.5,54.9,29.57,NW,315,3.5,4.3,64,0.00,CLR,,0.00,WeatherDisplay:10.37,2013-04-19 06:24:00,
2013-04-19 02:25:00,67.5,54.9,29.57,WNW,292,8.1,8.1,64,0.00,CLR,,0.00,WeatherDisplay:10.37,2013-04-19 06:25:00,
2013-04-19 02:26:00,67.5,54.9,29.57,WNW,292,9.2,9.2,64,0.00,CLR,,0.00,WeatherDisplay:10.37,2013-04-19 06:26:00,
2013-04-19 02:27:00,67.5,54.9,29.57,NW,315,9.2,9.2,64,0.00,CLR,,0.00,WeatherDisplay:10.37,2013-04-19 06:27:00,
2013-04-19 02:30:00,67.3,54.7,29.57,ENE,68,5.8,5.8,64,0.00,CLR,,0.00,WeatherDisplay:10.37,2013-04-19 06:30:00,
2013-04-19 02:31:00,67.3,54.7,29.57,NW,315,3.8,3.8,64,0.00,CLR,,0.00,WeatherDisplay:10.37,2013-04-19 06:31:00,
2013-04-19 02:32:00,67.5,54.9,29.57,West,270,8.1,8.1,64,0.00,CLR,,0.00,WeatherDisplay:10.37,2013-04-19 06:32:00,
2013-04-19 02:35:00,67.5,54.9,29.57,WNW,292,8.1,8.1,64,0.00,CLR,,0.00,WeatherDisplay:10.37,2013-04-19 06:35:00,
2013-04-19 02:36:00,67.5,54.9,29.57,WNW,292,6.9,6.9,64,0.00,CLR,,0.00,WeatherDisplay:10.37,2013-04-19 06:36:00,
2013-04-19 02:38:00,67.3,54.7,29.57,WNW,292,3.5,3.5,64,0.00,CLR,,0.00,WeatherDisplay:10.37,2013-04-19 06:38:00,
2013-04-19 02:40:00,67.5,54.9,29.57,NW,315,7.4,7.4,64,0.00,CLR,,0.00,WeatherDisplay:10.37,2013-04-19 06:40:00,
2013-04-19 02:41:00,67.3,54.7,29.57,West,270,6.9,6.9,64,0.00,CLR,,0.00,WeatherDisplay:10.37,2013-04-19 06:41:00,
2013-04-19 02:43:00,67.3,54.7,29.57,West,270,8.1,8.1,64,0.00,CLR,,0.00,WeatherDisplay:10.37,2013-04-19 06:43:00,
2013-04-19 02:45:00,67.3,54.7,29.57,WNW,292,8.1,8.1,64,0.00,CLR,,0.00,WeatherDisplay:10.37,2013-04-19 06:45:00,
2013-04-19 02:46:00,67.3,54.7,29.57,NW,315,5.8,5.8,64,0.00,CLR,,0.00,WeatherDisplay:10.37,2013-04-19 06:46:00,
2013-04-19 02:47:00,67.3,54.7,29.57,WSW,248,5.8,5.8,64,0.00,CLR,,0.00,WeatherDisplay:10.37,2013-04-19 06:47:00,
2013-04-19 02:48:00,67.3,54.7,29.57,West,270,8.1,8.1,64,0.00,CLR,,0.00,WeatherDisplay:10.37,2013-04-19 06:48:00,
2013-04-19 02:50:00,67.3,54.7,29.57,WNW,292,13.8,13.8,64,0.00,CLR,,0.00,WeatherDisplay:10.37,2013-04-19 06:50:00,
2013-04-19 02:51:00,67.5,54.9,29.57,West,270,13.8,13.8,64,0.00,CLR,,0.00,WeatherDisplay:10.37,2013-04-19 06:51:00,
2013-04-19 02:52:00,67.5,54.9,29.57,West,270,13.8,13.8,64,0.00,CLR,,0.00,WeatherDisplay:10.37,2013-04-19 06:52:00,
2013-04-19 02:53:00,67.5,54.9,29.57,WSW,248,8.1,8.1,64,0.00,CLR,,0.00,WeatherDisplay:10.37,2013-04-19 06:53:00,
2013-04-19 02:55:00,67.5,54.9,29.54,West,270,8.1,8.1,64,0.00,CLR,,0.00,WeatherDisplay:10.37,2013-04-19 06:55:00,
2013-04-19 02:56:00,67.5,54.9,29.54,West,270,12.7,12.7,64,0.00,CLR,,0.00,WeatherDisplay:10.37,2013-04-19 06:56:00,
2013-04-19 02:57:00,67.5,54.9,29.54,WNW,292,6.9,6.9,64,0.00,CLR,,0.00,WeatherDisplay:10.37,2013-04-19 06:57:00,
2013-04-19 02:58:00,67.5,54.9,29.54,West,270,8.1,8.1,64,0.00,CLR,,0.00,WeatherDisplay:10.37,2013-04-19 06:58:00,
2013-04-19 03:01:00,67.3,54.7,29.54,WNW,292,8.1,8.1,64,0.00,CLR,,0.00,WeatherDisplay:10.37,2013-04-19 07:01:00,
2013-04-19 03:02:00,67.5,54.9,29.54,WSW,248,12.7,12.7,64,0.00,CLR,,0.00,WeatherDisplay:10.37,2013-04-19 07:02:00,
2013-04-19 03:03:00,67.5,54.9,29.54,WSW,248,12.7,12.7,64,0.00,CLR,,0.00,WeatherDisplay:10.37,2013-04-19 07:03:00,
2013-04-19 03:06:00,67.5,54.4,29.54,West,270,8.1,8.1,63,0.00,CLR,,0.00,WeatherDisplay:10.37,2013-04-19 07:06:00,
2013-04-19 03:07:00,67.5,54.4,29.54,WSW,248,8.1,8.1,63,0.00,CLR,,0.00,WeatherDisplay:10.37,2013-04-19 07:07:00,
2013-04-19 03:08:00,67.5,54.4,29.54,WNW,292,6.9,6.9,63,0.00,CLR,,0.00,WeatherDisplay:10.37,2013-04-19 07:08:00,
2013-04-19 03:11:00,67.3,54.3,29.54,NW,315,5.8,5.8,63,0.00,CLR,,0.00,WeatherDisplay:10.37,2013-04-19 07:11:00,
2013-04-19 03:12:00,67.3,54.3,29.54,NW,315,9.4,9.4,63,0.00,CLR,,0.00,WeatherDisplay:10.37,2013-04-19 07:12:00,
2013-04-19 03:13:00,67.3,54.3,29.54,WSW,248,9.2,9.2,63,0.00,CLR,,0.00,WeatherDisplay:10.37,2013-04-19 07:13:00,
2013-04-19 03:16:00,67.1,54.1,29.54,WNW,292,5.8,5.8,63,0.00,CLR,,0.00,WeatherDisplay:10.37,2013-04-19 07:16:00,
2013-04-19 03:17:00,67.1,54.1,29.54,West,270,6.4,6.4,63,0.00,CLR,,0.00,WeatherDisplay:10.37,2013-04-19 07:17:00,
2013-04-19 03:19:00,67.1,54.5,29.54,WSW,248,10.4,10.4,64,0.00,CLR,,0.00,WeatherDisplay:10.37,2013-04-19 07:19:00,
2013-04-19 03:21:00,67.1,54.1,29.54,WNW,292,9.2,9.2,63,0.00,CLR,,0.00,WeatherDisplay:10.37,2013-04-19 07:21:00,
2013-04-19 03:22:00,67.1,54.5,29.54,WNW,292,9.2,9.2,64,0.00,CLR,,0.00,WeatherDisplay:10.37,2013-04-19 07:22:00,
2013-04-19 03:23:00,67.1,54.5,29.54,WSW,248,8.1,8.1,64,0.00,CLR,,0.00,WeatherDisplay:10.37,2013-04-19 07:23:00,
2013-04-19 03:24:00,67.1,54.1,29.54,WSW,248,5.9,5.9,63,0.00,CLR,,0.00,WeatherDisplay:10.37,2013-04-19 07:24:00,
2013-04-19 03:26:00,67.1,54.1,29.54,West,270,8.1,8.1,63,0.00,CLR,,0.00,WeatherDisplay:10.37,2013-04-19 07:26:00,
2013-04-19 03:27:00,67.1,54.1,29.54,WNW,292,8.1,8.1,63,0.00,CLR,,0.00,WeatherDisplay:10.37,2013-04-19 07:27:00,
2013-04-19 03:28:00,67.1,54.1,29.54,West,270,5.8,5.8,63,0.00,CLR,,0.00,WeatherDisplay:10.37,2013-04-19 07:28:00,
2013-04-19 03:29:00,67.1,54.1,29.54,West,270,9.8,9.8,63,0.00,CLR,,0.00,WeatherDisplay:10.37,2013-04-19 07:29:00,
2013-04-19 03:31:00,67.1,54.1,29.54,WNW,292,11.5,11.5,63,0.00,CLR,,0.00,WeatherDisplay:10.37,2013-04-19 07:31:00,
2013-04-19 03:32:00,67.1,54.1,29.54,SW,225,8.1,8.1,63,0.00,CLR,,0.00,WeatherDisplay:10.37,2013-04-19 07:32:00,
2013-04-19 03:33:00,67.1,54.1,29.54,WSW,248,6.9,6.9,63,0.00,CLR,,0.00,WeatherDisplay:10.37,2013-04-19 07:33:00,
2013-04-19 03:35:00,67.1,54.1,29.54,South,180,2.3,2.3,63,0.00,CLR,,0.00,WeatherDisplay:10.37,2013-04-19 07:35:00,
2013-04-19 03:37:00,66.9,53.9,29.54,West,270,5.8,5.8,63,0.00,CLR,,0.00,WeatherDisplay:10.37,2013-04-19 07:37:00,
2013-04-19 03:38:00,66.9,54.3,29.54,West,270,9.2,9.2,64,0.00,CLR,,0.00,WeatherDisplay:10.37,2013-04-19 07:38:00,
2013-04-19 03:40:00,66.9,54.3,29.54,West,270,10.4,10.4,64,0.00,CLR,,0.00,WeatherDisplay:10.37,2013-04-19 07:40:00,
2013-04-19 03:42:00,66.9,54.3,29.54,West,270,6.9,6.9,64,0.00,CLR,,0.00,WeatherDisplay:10.37,2013-04-19 07:42:00,
2013-04-19 03:43:00,66.9,53.9,29.54,NW,315,6.4,6.4,63,0.00,CLR,,0.00,WeatherDisplay:10.37,2013-04-19 07:43:00,
2013-04-19 03:44:00,66.9,53.9,29.54,WNW,292,10.4,10.4,63,0.00,CLR,,0.00,WeatherDisplay:10.37,2013-04-19 07:44:00,
2013-04-19 03:45:00,66.9,53.9,29.54,WNW,292,10.4,10.4,63,0.00,CLR,,0.00,WeatherDisplay:10.37,2013-04-19 07:45:00,
2013-04-19 03:47:00,66.9,53.9,29.54,WSW,248,6.0,6.0,63,0.00,CLR,,0.00,WeatherDisplay:10.37,2013-04-19 07:47:00,
2013-04-19 03:48:00,66.9,53.9,29.54,WNW,292,8.1,8.1,63,0.00,CLR,,0.00,WeatherDisplay:10.37,2013-04-19 07:48:00,
2013-04-19 03:49:00,66.9,53.9,29.54,WSW,248,6.7,6.7,63,0.00,CLR,,0.00,WeatherDisplay:10.37,2013-04-19 07:49:00,
2013-04-19 03:50:00,66.9,53.9,29.54,SW,225,6.9,6.9,63,0.00,CLR,,0.00,WeatherDisplay:10.37,2013-04-19 07:50:00,
2013-04-19 03:52:00,67.1,54.1,29.54,West,270,10.4,10.4,63,0.00,CLR,,0.00,WeatherDisplay:10.37,2013-04-19 07:52:00,
2013-04-19 03:54:00,67.1,54.1,29.54,West,270,10.4,10.4,63,0.00,CLR,,0.00,WeatherDisplay:10.37,2013-04-19 07:54:00,
2013-04-19 03:55:00,67.1,54.1,29.51,WSW,248,6.9,6.9,63,0.00,CLR,,0.00,WeatherDisplay:10.37,2013-04-19 07:55:00,
2013-04-19 03:57:00,67.1,54.1,29.51,WNW,292,5.8,6.0,63,0.00,CLR,,0.00,WeatherDisplay:10.37,2013-04-19 07:57:00,
2013-04-19 03:59:00,66.9,53.9,29.51,WNW,292,10.7,10.7,63,0.00,CLR,,0.00,WeatherDisplay:10.37,2013-04-19 07:59:00,
2013-04-19 04:00:00,67.1,54.1,29.51,WNW,292,11.5,11.5,63,0.00,CLR,,0.00,WeatherDisplay:10.37,2013-04-19 08:00:00,
2013-04-19 04:03:00,67.1,53.6,29.51,WNW,292,13.8,13.8,62,0.00,CLR,,0.00,WeatherDisplay:10.37,2013-04-19 08:03:00,
2013-04-19 04:04:00,67.1,53.6,29.51,WSW,248,13.8,13.8,62,0.00,CLR,,0.00,WeatherDisplay:10.37,2013-04-19 08:04:00,
2013-04-19 04:05:00,67.1,53.6,29.51,WSW,248,5.8,5.8,62,0.00,CLR,,0.00,WeatherDisplay:10.37,2013-04-19 08:05:00,
2013-04-19 04:08:00,67.1,53.6,29.51,WNW,292,13.8,13.8,62,0.00,CLR,,0.00,WeatherDisplay:10.37,2013-04-19 08:08:00,
2013-04-19 04:10:00,66.9,53.5,29.51,West,270,5.8,5.8,62,0.00,CLR,,0.00,WeatherDisplay:10.37,2013-04-19 08:10:00,
2013-04-19 04:11:00,66.9,53.5,29.51,West,270,5.8,5.8,62,0.00,CLR,,0.00,WeatherDisplay:10.37,2013-04-19 08:11:00,
2013-04-19 04:13:00,66.9,53.5,29.51,SSW,202,6.9,6.9,62,0.00,CLR,,0.00,WeatherDisplay:10.37,2013-04-19 08:13:00,
2013-04-19 04:15:00,66.9,53.5,29.51,West,270,12.7,12.7,62,0.00,CLR,,0.00,WeatherDisplay:10.37,2013-04-19 08:15:00,
2013-04-19 04:16:00,66.9,53.5,29.51,WSW,248,6.9,6.9,62,0.00,CLR,,0.00,WeatherDisplay:10.37,2013-04-19 08:16:00,
2013-04-19 04:18:00,66.9,53.9,29.51,WNW,292,6.9,6.9,63,0.00,CLR,,0.00,WeatherDisplay:10.37,2013-04-19 08:18:00,
2013-04-19 04:20:00,66.9,53.5,29.51,WNW,292,5.8,5.8,62,0.00,CLR,,0.00,WeatherDisplay:10.37,2013-04-19 08:20:00,
2013-04-19 04:21:00,66.9,53.5,29.51,WNW,292,8.1,8.1,62,0.00,CLR,,0.00,WeatherDisplay:10.37,2013-04-19 08:21:00,
2013-04-19 04:24:00,66.9,53.5,29.51,West,270,13.0,13.0,62,0.00,CLR,,0.00,WeatherDisplay:10.37,2013-04-19 08:24:00,
2013-04-19 04:26:00,66.9,53.5,29.51,NNW,338,8.1,8.1,62,0.00,CLR,,0.00,WeatherDisplay:10.37,2013-04-19 08:26:00,
2013-04-19 04:29:00,66.9,53.5,29.51,West,270,9.2,9.2,62,0.00,CLR,,0.00,WeatherDisplay:10.37,2013-04-19 08:29:00,
2013-04-19 04:31:00,66.9,53.5,29.51,West,270,9.2,9.2,62,0.00,CLR,,0.00,WeatherDisplay:10.37,2013-04-19 08:31:00,
2013-04-19 04:34:00,66.9,53.5,29.51,WSW,248,4.6,4.6,62,0.00,CLR,,0.00,WeatherDisplay:10.37,2013-04-19 08:34:00,
2013-04-19 04:36:00,66.9,53.5,29.51,West,270,10.4,10.4,62,0.00,CLR,,0.00,WeatherDisplay:10.37,2013-04-19 08:36:00,
2013-04-19 04:39:00,66.9,53.5,29.51,West,270,6.9,6.9,62,0.00,CLR,,0.00,WeatherDisplay:10.37,2013-04-19 08:39:00,
2013-04-19 04:41:00,66.9,53.5,29.48,West,270,11.5,11.5,62,0.00,CLR,,0.00,WeatherDisplay:10.37,2013-04-19 08:41:00,
2013-04-19 04:44:00,67.1,53.6,29.48,West,270,9.2,9.2,62,0.00,CLR,,0.00,WeatherDisplay:10.37,2013-04-19 08:44:00,
2013-04-19 04:46:00,66.9,53.5,29.48,West,270,10.9,10.9,62,0.00,CLR,,0.00,WeatherDisplay:10.37,2013-04-19 08:46:00,
2013-04-19 04:47:00,66.9,53.5,29.48,WNW,292,11.5,11.5,62,0.00,CLR,,0.00,WeatherDisplay:10.37,2013-04-19 08:47:00,
2013-04-19 04:49:00,67.1,53.6,29.48,WNW,292,6.7,6.7,62,0.00,CLR,,0.00,WeatherDisplay:10.37,2013-04-19 08:49:00,
2013-04-19 04:51:00,67.1,53.6,29.48,NW,315,13.8,13.8,62,0.00,CLR,,0.00,WeatherDisplay:10.37,2013-04-19 08:51:00,
2013-04-19 04:52:00,67.1,53.6,29.48,WSW,248,10.4,10.4,62,0.00,CLR,,0.00,WeatherDisplay:10.37,2013-04-19 08:52:00,
2013-04-19 04:54:00,67.1,53.6,29.51,WNW,292,6.9,6.9,62,0.00,CLR,,0.00,WeatherDisplay:10.37,2013-04-19 08:54:00,
2013-04-19 04:56:00,66.9,53.5,29.51,West,270,9.2,9.2,62,0.00,CLR,,0.00,WeatherDisplay:10.37,2013-04-19 08:56:00,
2013-04-19 04:57:00,66.9,53.5,29.51,WSW,248,5.8,5.8,62,0.00,CLR,,0.00,WeatherDisplay:10.37,2013-04-19 08:57:00,
2013-04-19 04:59:00,66.9,53.5,29.51,WSW,248,8.1,8.1,62,0.00,CLR,,0.00,WeatherDisplay:10.37,2013-04-19 08:59:00,
2013-04-19 05:01:00,66.9,53.5,29.51,WSW,248,15.0,15.0,62,0.00,CLR,,0.00,WeatherDisplay:10.37,2013-04-19 09:01:00,
2013-04-19 05:02:00,66.9,53.5,29.51,West,270,8.1,8.1,62,0.00,CLR,,0.00,WeatherDisplay:10.37,2013-04-19 09:02:00,
2013-04-19 05:04:00,66.9,53.5,29.51,SW,225,6.9,6.9,62,0.00,CLR,,0.00,WeatherDisplay:10.37,2013-04-19 09:04:00,
2013-04-19 05:06:00,66.9,53.5,29.51,WSW,248,6.9,6.9,62,0.00,CLR,,0.00,WeatherDisplay:10.37,2013-04-19 09:06:00,
2013-04-19 05:07:00,66.9,53.5,29.51,WNW,292,6.4,6.4,62,0.00,CLR,,0.00,WeatherDisplay:10.37,2013-04-19 09:07:00,
2013-04-19 05:08:00,66.9,53.5,29.51,WNW,292,8.1,8.1,62,0.00,CLR,,0.00,WeatherDisplay:10.37,2013-04-19 09:08:00,
2013-04-19 05:09:00,66.9,53.5,29.51,WSW,248,10.4,10.4,62,0.00,CLR,,0.00,WeatherDisplay:10.37,2013-04-19 09:09:00,
2013-04-19 05:11:00,66.9,53.5,29.51,South,180,9.8,9.8,62,0.00,CLR,,0.00,WeatherDisplay:10.37,2013-04-19 09:11:00,
2013-04-19 05:12:00,66.9,53.5,29.51,WSW,248,9.2,9.2,62,0.00,CLR,,0.00,WeatherDisplay:10.37,2013-04-19 09:12:00,
2013-04-19 05:13:00,66.9,53.5,29.51,West,270,9.2,9.2,62,0.00,CLR,,0.00,WeatherDisplay:10.37,2013-04-19 09:13:00,
2013-04-19 05:15:00,66.9,53.5,29.51,WNW,292,12.7,12.7,62,0.00,CLR,,0.00,WeatherDisplay:10.37,2013-04-19 09:15:00,
2013-04-19 05:16:00,66.9,53.5,29.51,West,270,10.4,10.4,62,0.00,CLR,,0.00,WeatherDisplay:10.37,2013-04-19 09:16:00,
2013-04-19 05:17:00,66.9,53.5,29.51,West,270,9.4,9.4,62,0.00,CLR,,0.00,WeatherDisplay:10.37,2013-04-19 09:17:00,
2013-04-19 05:18:00,66.9,53.5,29.51,SSW,202,10.0,10.0,62,0.00,CLR,,0.00,WeatherDisplay:10.37,2013-04-19 09:18:00,
2013-04-19 05:20:00,66.9,53.5,29.51,West,270,6.9,6.9,62,0.00,CLR,,0.00,WeatherDisplay:10.37,2013-04-19 09:20:00,
2013-04-19 05:21:00,66.9,53.5,29.51,WNW,292,9.2,9.2,62,0.00,CLR,,0.00,WeatherDisplay:10.37,2013-04-19 09:21:00,
2013-04-19 05:22:00,66.9,53.5,29.51,WSW,248,9.2,9.2,62,0.00,CLR,,0.00,WeatherDisplay:10.37,2013-04-19 09:22:00,
2013-04-19 05:23:00,66.9,53.5,29.51,WSW,248,11.5,11.5,62,0.00,CLR,,0.00,WeatherDisplay:10.37,2013-04-19 09:23:00,
2013-04-19 05:25:00,66.9,53.5,29.51,WNW,292,6.0,6.0,62,0.00,CLR,,0.00,WeatherDisplay:10.37,2013-04-19 09:25:00,
2013-04-19 05:27:00,66.7,53.3,29.51,SW,225,5.8,5.8,62,0.00,CLR,,0.00,WeatherDisplay:10.37,2013-04-19 09:27:00,
2013-04-19 05:28:00,66.7,53.3,29.51,WSW,248,8.1,8.1,62,0.00,CLR,,0.00,WeatherDisplay:10.37,2013-04-19 09:28:00,
2013-04-19 05:29:00,66.7,53.3,29.51,WSW,248,8.1,8.1,62,0.00,CLR,,0.00,WeatherDisplay:10.37,2013-04-19 09:29:00,
2013-04-19 05:31:00,66.7,53.3,29.51,WNW,292,8.1,8.1,62,0.00,CLR,,0.00,WeatherDisplay:10.37,2013-04-19 09:31:00,
2013-04-19 05:33:00,66.7,53.3,29.51,SW,225,6.4,6.4,62,0.00,CLR,,0.00,WeatherDisplay:10.37,2013-04-19 09:33:00,
2013-04-19 05:34:00,66.7,53.3,29.51,WNW,292,10.7,10.7,62,0.00,CLR,,0.00,WeatherDisplay:10.37,2013-04-19 09:34:00,
2013-04-19 05:36:00,66.7,53.3,29.51,WNW,292,10.7,10.7,62,0.00,CLR,,0.00,WeatherDisplay:10.37,2013-04-19 09:36:00,
2013-04-19 05:38:00,66.7,53.3,29.51,West,270,5.8,5.8,62,0.00,CLR,,0.00,WeatherDisplay:10.37,2013-04-19 09:38:00,
2013-04-19 05:39:00,66.6,53.1,29.51,West,270,4.6,5.4,62,0.00,CLR,,0.00,WeatherDisplay:10.37,2013-04-19 09:39:00,
2013-04-19 05:41:00,66.6,53.6,29.51,WNW,292,10.4,10.4,63,0.00,CLR,,0.00,WeatherDisplay:10.37,2013-04-19 09:41:00,
2013-04-19 05:43:00,66.6,53.6,29.51,WNW,292,4.6,6.2,63,0.00,CLR,,0.00,WeatherDisplay:10.37,2013-04-19 09:43:00,
2013-04-19 05:44:00,66.4,53.4,29.51,WSW,248,4.6,4.6,63,0.00,CLR,,0.00,WeatherDisplay:10.37,2013-04-19 09:44:00,
2013-04-19 05:46:00,66.4,53.4,29.51,SSE,158,3.3,4.9,63,0.00,CLR,,0.00,WeatherDisplay:10.37,2013-04-19 09:46:00,
2013-04-19 05:49:00,66.4,53.4,29.51,SSW,202,3.5,4.5,63,0.00,CLR,,0.00,WeatherDisplay:10.37,2013-04-19 09:49:00,
2013-04-19 05:51:00,66.4,53.4,29.51,WNW,292,7.8,7.8,63,0.00,CLR,,0.00,WeatherDisplay:10.37,2013-04-19 09:51:00,
2013-04-19 05:54:00,66.4,53.8,29.51,WNW,292,5.8,5.8,64,0.00,CLR,,0.00,WeatherDisplay:10.37,2013-04-19 09:54:00,
2013-04-19 05:55:00,66.4,53.8,29.51,WSW,248,5.8,5.8,64,0.00,CLR,,0.00,WeatherDisplay:10.37,2013-04-19 09:55:00,
2013-04-19 05:57:00,66.4,53.8,29.51,West,270,8.1,8.1,64,0.00,CLR,,0.00,WeatherDisplay:10.37,2013-04-19 09:57:00,
2013-04-19 05:59:00,66.2,53.7,29.51,NW,315,8.1,8.1,64,0.00,CLR,,0.00,WeatherDisplay:10.37,2013-04-19 09:59:00,
2013-04-19 06:00:00,66.2,53.7,29.51,West,270,8.1,8.1,64,0.00,CLR,,0.00,WeatherDisplay:10.37,2013-04-19 10:00:00,
2013-04-19 06:02:00,66.2,53.7,29.51,SW,225,4.6,4.6,64,0.00,CLR,,0.00,WeatherDisplay:10.37,2013-04-19 10:02:00,
2013-04-19 06:04:00,66.2,53.7,29.51,WSW,248,9.2,9.2,64,0.00,CLR,,0.00,WeatherDisplay:10.37,2013-04-19 10:04:00,
2013-04-19 06:05:00,66.2,53.7,29.51,SW,225,5.8,5.8,64,0.00,CLR,,0.00,WeatherDisplay:10.37,2013-04-19 10:05:00,
2013-04-19 06:07:00,66.2,53.7,29.51,WNW,292,5.8,5.8,64,0.00,CLR,,0.00,WeatherDisplay:10.37,2013-04-19 10:07:00,
2013-04-19 06:10:00,66.0,53.9,29.48,WSW,248,10.4,10.4,65,0.00,CLR,,0.00,WeatherDisplay:10.37,2013-04-19 10:10:00,
2013-04-19 06:13:00,66.0,53.9,29.48,West,270,8.1,8.1,65,0.00,CLR,,0.00,WeatherDisplay:10.37,2013-04-19 10:13:00,
2013-04-19 06:15:00,66.0,53.9,29.48,NW,315,7.1,7.1,65,0.00,CLR,,0.00,WeatherDisplay:10.37,2013-04-19 10:15:00,
2013-04-19 06:18:00,66.0,53.9,29.48,SW,225,8.1,8.1,65,0.00,CLR,,0.00,WeatherDisplay:10.37,2013-04-19 10:18:00,
2013-04-19 06:20:00,66.0,53.9,29.48,West,270,9.2,9.2,65,0.00,CLR,,0.00,WeatherDisplay:10.37,2013-04-19 10:20:00,
2013-04-19 06:21:00,66.0,53.9,29.48,WSW,248,9.2,9.2,65,0.00,CLR,,0.00,WeatherDisplay:10.37,2013-04-19 10:21:00,
2013-04-19 06:23:00,66.0,53.9,29.48,SSW,202,6.9,6.9,65,0.00,CLR,,0.00,WeatherDisplay:10.37,2013-04-19 10:23:00,
2013-04-19 06:25:00,66.0,53.9,29.48,West,270,5.8,5.8,65,0.00,CLR,,0.00,WeatherDisplay:10.37,2013-04-19 10:25:00,
2013-04-19 06:26:00,66.0,54.3,29.48,WSW,248,9.2,9.2,66,0.00,CLR,,0.00,WeatherDisplay:10.37,2013-04-19 10:26:00,
2013-04-19 06:28:00,66.0,54.3,29.48,West,270,5.8,5.8,66,0.00,CLR,,0.00,WeatherDisplay:10.37,2013-04-19 10:28:00,
2013-04-19 06:30:00,66.0,54.3,29.48,WSW,248,8.1,8.1,66,0.00,CLR,,0.00,WeatherDisplay:10.37,2013-04-19 10:30:00,
2013-04-19 06:32:00,66.0,54.3,29.48,West,270,7.8,7.8,66,0.00,CLR,,0.00,WeatherDisplay:10.37,2013-04-19 10:32:00,
2013-04-19 06:33:00,66.0,53.9,29.48,WSW,248,13.8,13.8,65,0.00,CLR,,0.00,WeatherDisplay:10.37,2013-04-19 10:33:00,
2013-04-19 06:35:00,66.0,53.9,29.48,SW,225,12.7,12.7,65,0.00,CLR,,0.00,WeatherDisplay:10.37,2013-04-19 10:35:00,
2013-04-19 06:36:00,66.2,54.1,29.48,WSW,248,12.7,12.7,65,0.00,CLR,,0.00,WeatherDisplay:10.37,2013-04-19 10:36:00,
2013-04-19 06:37:00,66.2,54.1,29.48,WSW,248,5.8,5.8,65,0.00,CLR,,0.00,WeatherDisplay:10.37,2013-04-19 10:37:00,
2013-04-19 06:39:00,66.0,53.9,29.48,West,270,9.2,9.2,65,0.00,CLR,,0.00,WeatherDisplay:10.37,2013-04-19 10:39:00,
2013-04-19 06:40:00,66.0,53.9,29.48,WSW,248,6.9,6.9,65,0.00,CLR,,0.00,WeatherDisplay:10.37,2013-04-19 10:40:00,
2013-04-19 06:41:00,66.2,54.1,29.48,SW,225,9.8,9.8,65,0.00,CLR,,0.00,WeatherDisplay:10.37,2013-04-19 10:41:00,
2013-04-19 06:42:00,66.2,54.1,29.48,WSW,248,9.2,9.2,65,0.00,CLR,,0.00,WeatherDisplay:10.37,2013-04-19 10:42:00,
2013-04-19 06:44:00,66.2,54.1,29.48,West,270,10.4,10.4,65,0.00,CLR,,0.00,WeatherDisplay:10.37,2013-04-19 10:44:00,
2013-04-19 06:45:00,66.2,54.1,29.48,WSW,248,9.2,9.2,65,0.00,CLR,,0.00,WeatherDisplay:10.37,2013-04-19 10:45:00,
2013-04-19 06:46:00,66.2,54.1,29.48,West,270,8.5,8.5,65,0.00,CLR,,0.00,WeatherDisplay:10.37,2013-04-19 10:46:00,
2013-04-19 06:47:00,66.2,53.7,29.48,WSW,248,8.1,8.1,64,0.00,CLR,,0.00,WeatherDisplay:10.37,2013-04-19 10:47:00,
2013-04-19 06:49:00,66.2,53.7,29.48,WNW,292,9.2,9.2,64,0.00,CLR,,0.00,WeatherDisplay:10.37,2013-04-19 10:49:00,
2013-04-19 06:50:00,66.2,53.7,29.48,WSW,248,8.1,8.1,64,0.00,CLR,,0.00,WeatherDisplay:10.37,2013-04-19 10:50:00,
2013-04-19 06:51:00,66.2,53.7,29.48,WSW,248,10.4,10.4,64,0.00,CLR,,0.00,WeatherDisplay:10.37,2013-04-19 10:51:00,
2013-04-19 06:52:00,66.4,53.8,29.48,West,270,6.9,7.6,64,0.00,CLR,,0.00,WeatherDisplay:10.37,2013-04-19 10:52:00,
2013-04-19 06:55:00,66.2,53.7,29.45,WNW,292,5.8,5.8,64,0.00,CLR,,0.00,WeatherDisplay:10.37,2013-04-19 10:55:00,
2013-04-19 06:56:00,66.2,53.7,29.45,WSW,248,10.4,10.4,64,0.00,CLR,,0.00,WeatherDisplay:10.37,2013-04-19 10:56:00,
2013-04-19 06:58:00,66.2,53.7,29.45,WNW,292,8.1,8.1,64,0.00,CLR,,0.00,WeatherDisplay:10.37,2013-04-19 10:58:00,
2013-04-19 07:00:00,66.2,53.7,29.45,WSW,248,8.1,8.1,64,0.00,CLR,,0.00,WeatherDisplay:10.37,2013-04-19 11:00:00,
2013-04-19 07:01:00,66.2,53.7,29.45,WNW,292,8.1,8.1,64,0.00,CLR,,0.00,WeatherDisplay:10.37,2013-04-19 11:01:00,
2013-04-19 07:03:00,66.2,53.7,29.45,SSW,202,10.2,10.2,64,0.00,CLR,,0.00,WeatherDisplay:10.37,2013-04-19 11:03:00,
2013-04-19 07:05:00,66.2,53.7,29.45,WNW,292,9.2,9.2,64,0.00,CLR,,0.00,WeatherDisplay:10.37,2013-04-19 11:05:00,
2013-04-19 07:06:00,66.4,53.8,29.45,WSW,248,9.2,9.2,64,0.00,CLR,,0.00,WeatherDisplay:10.37,2013-04-19 11:06:00,
2013-04-19 07:07:00,66.4,53.8,29.45,West,270,6.9,6.9,64,0.00,CLR,,0.00,WeatherDisplay:10.37,2013-04-19 11:07:00,
2013-04-19 07:08:00,66.4,53.8,29.45,WSW,248,8.1,8.1,64,0.00,CLR,,0.00,WeatherDisplay:10.37,2013-04-19 11:08:00,
2013-04-19 07:11:00,66.4,53.8,29.45,WNW,292,5.8,5.8,64,0.00,CLR,,0.00,WeatherDisplay:10.37,2013-04-19 11:11:00,
2013-04-19 07:12:00,66.4,53.8,29.45,West,270,7.8,7.8,64,0.00,CLR,,0.00,WeatherDisplay:10.37,2013-04-19 11:12:00,
2013-04-19 07:13:00,66.4,53.8,29.45,WSW,248,9.2,9.2,64,0.00,CLR,,0.00,WeatherDisplay:10.37,2013-04-19 11:13:00,
2013-04-19 07:16:00,66.6,54.0,29.45,WNW,292,8.1,8.1,64,0.00,CLR,,0.00,WeatherDisplay:10.37,2013-04-19 11:16:00,
2013-04-19 07:17:00,66.6,54.0,29.45,WNW,292,8.1,8.1,64,0.00,CLR,,0.00,WeatherDisplay:10.37,2013-04-19 11:17:00,
2013-04-19 07:18:00,66.6,54.0,29.45,WNW,292,8.1,8.1,64,0.00,CLR,,0.00,WeatherDisplay:10.37,2013-04-19 11:18:00,
2013-04-19 07:23:00,66.7,53.7,29.45,WNW,292,10.4,10.4,63,0.00,CLR,,0.00,WeatherDisplay:10.37,2013-04-19 11:23:00,
2013-04-19 07:24:00,66.7,53.7,29.45,WNW,292,8.1,8.1,63,0.00,CLR,,0.00,WeatherDisplay:10.37,2013-04-19 11:24:00,
2013-04-19 07:30:00,66.9,53.9,29.45,WNW,292,10.4,10.4,63,0.00,CLR,,0.00,WeatherDisplay:10.37,2013-04-19 11:30:00,
2013-04-19 07:35:00,66.9,53.9,29.45,WNW,292,12.5,12.5,63,0.00,CLR,,0.00,WeatherDisplay:10.37,2013-04-19 11:35:00,
2013-04-19 07:36:00,66.9,53.9,29.45,WNW,292,12.7,12.7,63,0.00,CLR,,0.00,WeatherDisplay:10.37,2013-04-19 11:36:00,
2013-04-19 07:40:00,66.9,53.9,29.45,NNW,338,5.8,7.6,63,0.00,CLR,,0.00,WeatherDisplay:10.37,2013-04-19 11:40:00,
2013-04-19 07:41:00,66.9,53.5,29.45,WNW,292,5.8,5.8,62,0.00,CLR,,0.00,WeatherDisplay:10.37,2013-04-19 11:41:00,
2013-04-19 07:45:00,67.1,53.6,29.45,West,270,8.1,8.1,62,0.00,CLR,,0.00,WeatherDisplay:10.37,2013-04-19 11:45:00,
2013-04-19 07:46:00,67.1,53.6,29.45,WNW,292,9.2,9.2,62,0.00,CLR,,0.00,WeatherDisplay:10.37,2013-04-19 11:46:00,
2013-04-19 07:50:00,67.1,53.6,29.45,SW,225,6.2,6.2,62,0.00,CLR,,0.00,WeatherDisplay:10.37,2013-04-19 11:50:00,
2013-04-19 07:51:00,67.1,53.6,29.45,WNW,292,8.1,8.1,62,0.00,CLR,,0.00,WeatherDisplay:10.37,2013-04-19 11:51:00,
2013-04-19 07:56:00,67.1,53.6,29.42,WSW,248,8.1,8.1,62,0.00,CLR,,0.00,WeatherDisplay:10.37,2013-04-19 11:56:00,
2013-04-19 07:57:00,67.3,53.8,29.42,West,270,8.1,8.1,62,0.00,CLR,,0.00,WeatherDisplay:10.37,2013-04-19 11:57:00,
2013-04-19 08:01:00,67.3,53.8,29.42,West,270,8.5,8.5,62,0.00,CLR,,0.00,WeatherDisplay:10.37,2013-04-19 12:01:00,
2013-04-19 08:03:00,67.5,54.0,29.42,West,270,8.1,8.1,62,0.00,CLR,,0.00,WeatherDisplay:10.37,2013-04-19 12:03:00,
2013-04-19 08:06:00,67.5,54.0,29.42,WSW,248,11.5,11.5,62,0.00,CLR,,0.00,WeatherDisplay:10.37,2013-04-19 12:06:00,
2013-04-19 08:08:00,67.6,53.7,29.42,WNW,292,10.4,10.4,61,0.00,CLR,,0.00,WeatherDisplay:10.37,2013-04-19 12:08:00,
2013-04-19 08:11:00,67.6,53.7,29.48,West,270,12.7,12.7,61,0.00,CLR,,0.00,WeatherDisplay:10.37,2013-04-19 12:11:00,
2013-04-19 08:12:00,67.8,53.9,29.48,WSW,248,12.7,12.7,61,0.00,CLR,,0.00,WeatherDisplay:10.37,2013-04-19 12:12:00,
2013-04-19 08:13:00,67.8,53.9,29.48,West,270,9.2,9.2,61,0.00,CLR,,0.00,WeatherDisplay:10.37,2013-04-19 12:13:00,
2013-04-19 08:16:00,67.8,53.9,29.48,SSW,202,8.5,8.5,61,0.00,CLR,,0.00,WeatherDisplay:10.37,2013-04-19 12:16:00,
2013-04-19 08:17:00,67.8,53.9,29.48,SSW,202,8.5,8.5,61,0.00,CLR,,0.00,WeatherDisplay:10.37,2013-04-19 12:17:00,
2013-04-19 08:18:00,67.8,53.9,29.48,SSW,202,8.5,8.5,61,0.00,CLR,,0.00,WeatherDisplay:10.37,2013-04-19 12:18:00,
2013-04-19 08:21:00,67.8,53.9,29.48,WSW,248,8.1,8.1,61,0.00,CLR,,0.00,WeatherDisplay:10.37,2013-04-19 12:21:00,
2013-04-19 08:22:00,67.8,53.9,29.48,WSW,248,8.1,8.1,61,0.00,CLR,,0.00,WeatherDisplay:10.37,2013-04-19 12:22:00,
2013-04-19 08:23:00,67.8,53.9,29.48,WSW,248,5.8,5.8,61,0.00,CLR,,0.00,WeatherDisplay:10.37,2013-04-19 12:23:00,
2013-04-19 08:26:00,67.8,53.9,29.45,WNW,292,10.4,10.4,61,0.00,CLR,,0.00,WeatherDisplay:10.37,2013-04-19 12:26:00,
2013-04-19 08:27:00,67.8,53.9,29.45,WNW,292,6.2,6.2,61,0.00,CLR,,0.00,WeatherDisplay:10.37,2013-04-19 12:27:00,
2013-04-19 08:28:00,67.8,53.9,29.45,West,270,5.8,5.8,61,0.00,CLR,,0.00,WeatherDisplay:10.37,2013-04-19 12:28:00,
2013-04-19 08:31:00,68.0,53.6,29.45,WNW,292,9.2,9.2,60,0.00,CLR,,0.00,WeatherDisplay:10.37,2013-04-19 12:31:00,
2013-04-19 08:32:00,68.2,53.8,29.45,West,270,9.2,9.2,60,0.00,CLR,,0.00,WeatherDisplay:10.37,2013-04-19 12:32:00,
2013-04-19 08:33:00,68.2,53.8,29.45,West,270,7.4,7.4,60,0.00,CLR,,0.00,WeatherDisplay:10.37,2013-04-19 12:33:00,
2013-04-19 08:37:00,68.2,53.3,29.45,WNW,292,4.6,4.7,59,0.00,CLR,,0.00,WeatherDisplay:10.37,2013-04-19 12:37:00,
2013-04-19 08:38:00,68.2,53.3,29.45,WNW,292,8.5,8.5,59,0.00,CLR,,0.00,WeatherDisplay:10.37,2013-04-19 12:38:00,
2013-04-19 08:43:00,68.4,53.5,29.45,NW,315,10.4,10.4,59,0.00,CLR,,0.00,WeatherDisplay:10.37,2013-04-19 12:43:00,
2013-04-19 08:44:00,68.4,53.5,29.45,NNW,338,8.1,8.1,59,0.00,CLR,,0.00,WeatherDisplay:10.37,2013-04-19 12:44:00,
2013-04-19 08:48:00,68.4,53.5,29.45,WNW,292,12.7,12.7,59,0.00,CLR,,0.00,WeatherDisplay:10.37,2013-04-19 12:48:00,
2013-04-19 08:49:00,68.4,53.5,29.45,WNW,292,8.1,8.1,59,0.00,CLR,,0.00,WeatherDisplay:10.37,2013-04-19 12:49:00,
2013-04-19 08:53:00,68.5,53.2,29.45,SW,225,6.9,6.9,58,0.00,CLR,,0.00,WeatherDisplay:10.37,2013-04-19 12:53:00,
2013-04-19 08:54:00,68.5,53.2,29.45,West,270,5.8,5.8,58,0.00,CLR,,0.00,WeatherDisplay:10.37,2013-04-19 12:54:00,
2013-04-19 08:58:00,68.5,53.2,29.45,West,270,7.1,7.4,58,0.00,CLR,,0.00,WeatherDisplay:10.37,2013-04-19 12:58:00,
2013-04-19 08:59:00,68.5,53.2,29.45,West,270,8.1,8.1,58,0.00,CLR,,0.00,WeatherDisplay:10.37,2013-04-19 12:59:00,
2013-04-19 09:03:00,68.5,53.2,29.45,West,270,9.2,9.2,58,0.00,CLR,,0.00,WeatherDisplay:10.37,2013-04-19 13:03:00,
2013-04-19 09:04:00,68.5,53.2,29.45,WSW,248,8.1,8.1,58,0.00,CLR,,0.00,WeatherDisplay:10.37,2013-04-19 13:04:00,
2013-04-19 09:09:00,68.5,53.2,29.45,WSW,248,10.4,10.4,58,0.00,CLR,,0.00,WeatherDisplay:10.37,2013-04-19 13:09:00,
2013-04-19 09:14:00,68.5,53.2,29.42,WNW,292,13.2,13.2,58,0.00,CLR,,0.00,WeatherDisplay:10.37,2013-04-19 13:14:00,
2013-04-19 09:15:00,68.5,53.2,29.42,West,270,15.0,15.0,58,0.00,CLR,,0.00,WeatherDisplay:10.37,2013-04-19 13:15:00,
2013-04-19 09:19:00,68.5,53.2,29.42,WSW,248,10.4,10.4,58,0.00,CLR,,0.00,WeatherDisplay:10.37,2013-04-19 13:19:00,
2013-04-19 09:20:00,68.5,53.2,29.42,WSW,248,5.8,5.8,58,0.00,CLR,,0.00,WeatherDisplay:10.37,2013-04-19 13:20:00,
2013-04-19 09:24:00,68.7,53.3,29.42,WNW,292,8.1,8.1,58,0.00,CLR,,0.00,WeatherDisplay:10.37,2013-04-19 13:24:00,
2013-04-19 09:25:00,68.7,53.3,29.42,WSW,248,5.8,5.8,58,0.00,CLR,,0.00,WeatherDisplay:10.37,2013-04-19 13:25:00,
2013-04-19 09:29:00,68.7,52.9,29.42,WSW,248,10.5,10.5,57,0.00,CLR,,0.00,WeatherDisplay:10.37,2013-04-19 13:29:00,
2013-04-19 09:30:00,68.7,52.9,29.42,West,270,11.5,11.5,57,0.00,CLR,,0.00,WeatherDisplay:10.37,2013-04-19 13:30:00,
2013-04-19 09:34:00,68.7,53.3,29.42,SW,225,6.9,6.9,58,0.00,CLR,,0.00,WeatherDisplay:10.37,2013-04-19 13:34:00,
2013-04-19 09:35:00,68.7,53.3,29.42,SW,225,6.9,6.9,58,0.00,CLR,,0.00,WeatherDisplay:10.37,2013-04-19 13:35:00,
2013-04-19 09:40:00,68.7,53.3,29.39,WNW,292,8.1,8.1,58,0.00,CLR,,0.00,WeatherDisplay:10.37,2013-04-19 13:40:00,
2013-04-19 09:41:00,68.7,52.9,29.39,WNW,292,11.5,11.5,57,0.00,CLR,,0.00,WeatherDisplay:10.37,2013-04-19 13:41:00,
2013-04-19 09:45:00,68.7,52.9,29.39,WSW,248,6.9,6.9,57,0.00,CLR,,0.00,WeatherDisplay:10.37,2013-04-19 13:45:00,
2013-04-19 09:47:00,68.7,52.9,29.39,WSW,248,9.2,9.2,57,0.00,CLR,,0.00,WeatherDisplay:10.37,2013-04-19 13:47:00,
2013-04-19 09:50:00,68.7,52.9,29.39,West,270,7.1,7.1,57,0.00,CLR,,0.00,WeatherDisplay:10.37,2013-04-19 13:50:00,
2013-04-19 09:51:00,68.7,52.9,29.39,WNW,292,6.9,6.9,57,0.00,CLR,,0.00,WeatherDisplay:10.37,2013-04-19 13:51:00,
2013-04-19 09:52:00,68.7,52.9,29.39,WNW,292,6.9,6.9,57,0.00,CLR,,0.00,WeatherDisplay:10.37,2013-04-19 13:52:00,
2013-04-19 09:55:00,68.7,52.9,29.39,West,270,8.1,8.1,57,0.00,CLR,,0.00,WeatherDisplay:10.37,2013-04-19 13:55:00,
2013-04-19 09:56:00,68.7,52.9,29.39,WSW,248,6.2,6.2,57,0.00,CLR,,0.00,WeatherDisplay:10.37,2013-04-19 13:56:00,
2013-04-19 09:57:00,68.7,53.3,29.39,WSW,248,5.8,5.8,58,0.00,CLR,,0.00,WeatherDisplay:10.37,2013-04-19 13:57:00,
2013-04-19 10:00:00,68.9,53.0,29.39,WNW,292,5.8,5.8,57,0.00,CLR,,0.00,WeatherDisplay:10.37,2013-04-19 14:00:00,
2013-04-19 10:01:00,68.9,53.0,29.39,West,270,11.4,11.4,57,0.00,CLR,,0.00,WeatherDisplay:10.37,2013-04-19 14:01:00,
2013-04-19 10:02:00,68.9,53.0,29.39,WNW,292,11.5,11.5,57,0.00,CLR,,0.00,WeatherDisplay:10.37,2013-04-19 14:02:00,
2013-04-19 10:06:00,69.1,53.2,29.39,East,90,12.7,12.7,57,0.00,CLR,,0.00,WeatherDisplay:10.37,2013-04-19 14:06:00,
2013-04-19 10:07:00,69.1,53.2,29.39,WSW,248,10.4,10.4,57,0.00,CLR,,0.00,WeatherDisplay:10.37,2013-04-19 14:07:00,
2013-04-19 10:11:00,69.3,52.9,29.39,WNW,292,11.5,11.5,56,0.00,CLR,,0.00,WeatherDisplay:10.37,2013-04-19 14:11:00,
2013-04-19 10:12:00,69.3,52.9,29.39,WSW,248,11.5,11.5,56,0.00,CLR,,0.00,WeatherDisplay:10.37,2013-04-19 14:12:00,
2013-04-19 10:16:00,69.3,52.9,29.39,WSW,248,8.1,8.1,56,0.00,CLR,,0.00,WeatherDisplay:10.37,2013-04-19 14:16:00,
2013-04-19 10:17:00,69.3,52.9,29.39,WNW,292,15.0,15.0,56,0.00,CLR,,0.00,WeatherDisplay:10.37,2013-04-19 14:17:00,
2013-04-19 10:21:00,69.4,53.1,29.39,WSW,248,6.9,6.9,56,0.00,CLR,,0.00,WeatherDisplay:10.37,2013-04-19 14:21:00,
2013-04-19 10:22:00,69.4,53.1,29.39,West,270,8.1,8.1,56,0.00,CLR,,0.00,WeatherDisplay:10.37,2013-04-19 14:22:00,
2013-04-19 10:23:00,69.4,52.6,29.39,WNW,292,10.5,10.5,55,0.00,CLR,,0.00,WeatherDisplay:10.37,2013-04-19 14:23:00,
2013-04-19 10:26:00,69.6,52.7,29.39,WSW,248,9.2,9.2,55,0.00,CLR,,0.00,WeatherDisplay:10.37,2013-04-19 14:26:00,
2013-04-19 10:27:00,69.6,52.7,29.39,WSW,248,8.1,8.1,55,0.00,CLR,,0.00,WeatherDisplay:10.37,2013-04-19 14:27:00,
2013-04-19 10:28:00,69.6,52.7,29.39,SW,225,8.1,8.1,55,0.00,CLR,,0.00,WeatherDisplay:10.37,2013-04-19 14:28:00,
2013-04-19 10:31:00,69.8,52.4,29.39,West,270,8.5,8.5,54,0.00,CLR,,0.00,WeatherDisplay:10.37,2013-04-19 14:31:00,
2013-04-19 10:32:00,69.8,52.4,29.39,West,270,8.1,8.1,54,0.00,CLR,,0.00,WeatherDisplay:10.37,2013-04-19 14:32:00,
2013-04-19 10:33:00,69.8,52.4,29.39,West,270,8.1,8.1,54,0.00,CLR,,0.00,WeatherDisplay:10.37,2013-04-19 14:33:00,
2013-04-19 10:37:00,70.0,52.6,29.39,WNW,292,6.9,6.9,54,0.00,CLR,,0.00,WeatherDisplay:10.37,2013-04-19 14:37:00,
2013-04-19 10:38:00,70.2,52.7,29.39,SSW,202,5.8,5.8,54,0.00,CLR,,0.00,WeatherDisplay:10.37,2013-04-19 14:38:00,
2013-04-19 10:39:00,70.2,52.7,29.39,SSW,202,5.8,5.8,54,0.00,CLR,,0.00,WeatherDisplay:10.37,2013-04-19 14:39:00,
2013-04-19 10:42:00,70.3,52.4,29.39,West,270,10.4,10.4,53,0.00,CLR,,0.00,WeatherDisplay:10.37,2013-04-19 14:42:00,
2013-04-19 10:43:00,70.3,52.4,29.39,West,270,8.1,8.1,53,0.00,CLR,,0.00,WeatherDisplay:10.37,2013-04-19 14:43:00,
2013-04-19 10:44:00,70.3,52.4,29.39,SSW,202,8.1,8.1,53,0.00,CLR,,0.00,WeatherDisplay:10.37,2013-04-19 14:44:00,
2013-04-19 10:47:00,70.5,52.0,29.39,WNW,292,8.1,8.1,52,0.00,CLR,,0.00,WeatherDisplay:10.37,2013-04-19 14:47:00,
2013-04-19 10:48:00,70.5,52.0,29.39,WSW,248,8.1,8.1,52,0.00,CLR,,0.00,WeatherDisplay:10.37,2013-04-19 14:48:00,
2013-04-19 10:49:00,70.5,52.0,29.39,West,270,5.8,5.8,52,0.00,CLR,,0.00,WeatherDisplay:10.37,2013-04-19 14:49:00,
2013-04-19 10:52:00,71.1,52.0,29.39,West,270,5.9,5.9,51,0.00,CLR,,0.00,WeatherDisplay:10.37,2013-04-19 14:52:00,
2013-04-19 10:53:00,71.1,52.0,29.39,WNW,292,8.5,8.5,51,0.00,CLR,,0.00,WeatherDisplay:10.37,2013-04-19 14:53:00,
2013-04-19 10:54:00,71.1,52.0,29.39,WSW,248,8.1,8.1,51,0.00,CLR,,0.00,WeatherDisplay:10.37,2013-04-19 14:54:00,
2013-04-19 10:57:00,71.2,52.2,29.36,NW,315,5.9,5.9,51,0.00,CLR,,0.00,WeatherDisplay:10.37,2013-04-19 14:57:00,
2013-04-19 10:58:00,71.2,52.2,29.36,WNW,292,13.8,13.8,51,0.00,CLR,,0.00,WeatherDisplay:10.37,2013-04-19 14:58:00,
2013-04-19 10:59:00,71.2,52.2,29.36,West,270,6.9,6.9,51,0.00,CLR,,0.00,WeatherDisplay:10.37,2013-04-19 14:59:00,
2013-04-19 11:02:00,71.2,52.2,29.36,WNW,292,5.8,5.8,51,0.00,CLR,,0.00,WeatherDisplay:10.37,2013-04-19 15:02:00,
2013-04-19 11:03:00,71.2,52.2,29.36,NW,315,5.8,5.8,51,0.00,CLR,,0.00,WeatherDisplay:10.37,2013-04-19 15:03:00,
2013-04-19 11:04:00,71.2,51.6,29.36,WSW,248,5.8,5.8,50,0.00,CLR,,0.00,WeatherDisplay:10.37,2013-04-19 15:04:00,
2013-04-19 11:08:00,71.1,51.5,29.36,WSW,248,6.9,6.9,50,0.00,CLR,,0.00,WeatherDisplay:10.37,2013-04-19 15:08:00,
2013-04-19 11:09:00,71.1,52.0,29.36,WNW,292,6.9,6.9,51,0.00,CLR,,0.00,WeatherDisplay:10.37,2013-04-19 15:09:00,
2013-04-19 11:13:00,70.9,51.3,29.36,WSW,248,10.4,10.4,50,0.00,CLR,,0.00,WeatherDisplay:10.37,2013-04-19 15:13:00,
2013-04-19 11:14:00,70.9,51.8,29.36,WSW,248,10.4,10.4,51,0.00,CLR,,0.00,WeatherDisplay:10.37,2013-04-19 15:14:00,
2013-04-19 11:15:00,70.9,51.8,29.36,WSW,248,4.6,4.6,51,0.00,CLR,,0.00,WeatherDisplay:10.37,2013-04-19 15:15:00,
2013-04-19 11:18:00,70.9,51.8,29.36,WSW,248,11.5,11.5,51,0.00,CLR,,0.00,WeatherDisplay:10.37,2013-04-19 15:18:00,
2013-04-19 11:19:00,70.9,51.8,29.36,WNW,292,11.5,11.5,51,0.00,CLR,,0.00,WeatherDisplay:10.37,2013-04-19 15:19:00,
2013-04-19 11:20:00,70.9,51.3,29.36,NNW,338,10.4,10.4,50,0.00,CLR,,0.00,WeatherDisplay:10.37,2013-04-19 15:20:00,
2013-04-19 11:23:00,71.1,52.0,29.36,West,270,5.8,5.8,51,0.00,CLR,,0.00,WeatherDisplay:10.37,2013-04-19 15:23:00,
2013-04-19 11:24:00,71.2,52.2,29.36,WSW,248,8.1,8.1,51,0.00,CLR,,0.00,WeatherDisplay:10.37,2013-04-19 15:24:00,
2013-04-19 11:25:00,71.2,52.2,29.36,WNW,292,8.5,8.5,51,0.00,CLR,,0.00,WeatherDisplay:10.37,2013-04-19 15:25:00,
2013-04-19 11:28:00,71.2,51.6,29.36,SSE,158,6.9,6.9,50,0.00,CLR,,0.00,WeatherDisplay:10.37,2013-04-19 15:28:00,
2013-04-19 11:30:00,71.2,51.6,29.36,SW,225,6.9,6.9,50,0.00,CLR,,0.00,WeatherDisplay:10.37,2013-04-19 15:30:00,
2013-04-19 11:31:00,71.2,51.6,29.36,WSW,248,5.8,5.8,50,0.00,CLR,,0.00,WeatherDisplay:10.37,2013-04-19 15:31:00,
2013-04-19 11:34:00,71.2,51.6,29.36,WNW,292,13.0,13.0,50,0.00,CLR,,0.00,WeatherDisplay:10.37,2013-04-19 15:34:00,
2013-04-19 11:35:00,71.4,51.8,29.36,WNW,292,12.7,12.7,50,0.00,CLR,,0.00,WeatherDisplay:10.37,2013-04-19 15:35:00,
2013-04-19 11:36:00,71.4,51.8,29.36,WNW,292,8.1,8.1,50,0.00,CLR,,0.00,WeatherDisplay:10.37,2013-04-19 15:36:00,
2013-04-19 11:39:00,71.4,51.8,29.33,SW,225,10.4,10.4,50,0.00,CLR,,0.00,WeatherDisplay:10.37,2013-04-19 15:39:00,
2013-04-19 11:40:00,71.4,51.8,29.33,SW,225,10.4,10.4,50,0.00,CLR,,0.00,WeatherDisplay:10.37,2013-04-19 15:40:00,
2013-04-19 11:41:00,71.4,51.8,29.33,SW,225,7.6,7.6,50,0.00,CLR,,0.00,WeatherDisplay:10.37,2013-04-19 15:41:00,
2013-04-19 11:44:00,71.6,51.4,29.33,West,270,7.4,7.4,49,0.00,CLR,,0.00,WeatherDisplay:10.37,2013-04-19 15:44:00,
2013-04-19 11:45:00,71.6,51.4,29.33,WNW,292,12.7,12.7,49,0.00,CLR,,0.00,WeatherDisplay:10.37,2013-04-19 15:45:00,
2013-04-19 11:46:00,71.6,51.4,29.33,WNW,292,13.8,13.8,49,0.00,CLR,,0.00,WeatherDisplay:10.37,2013-04-19 15:46:00,
2013-04-19 11:49:00,71.6,51.4,29.33,West,270,9.2,9.2,49,0.00,CLR,,0.00,WeatherDisplay:10.37,2013-04-19 15:49:00,
2013-04-19 11:50:00,71.6,52.0,29.33,SW,225,8.7,8.7,50,0.00,CLR,,0.00,WeatherDisplay:10.37,2013-04-19 15:50:00,
2013-04-19 11:51:00,71.6,51.4,29.33,WNW,292,9.2,9.2,49,0.00,CLR,,0.00,WeatherDisplay:10.37,2013-04-19 15:51:00,
2013-04-19 11:54:00,71.4,52.3,29.33,West,270,6.9,6.9,51,0.00,CLR,,0.00,WeatherDisplay:10.37,2013-04-19 15:54:00,
2013-04-19 11:56:00,71.4,52.9,29.33,WNW,292,8.1,8.1,52,0.00,CLR,,0.00,WeatherDisplay:10.37,2013-04-19 15:56:00,
2013-04-19 11:59:00,71.2,53.2,29.33,SW,225,8.1,8.1,53,0.00,CLR,,0.00,WeatherDisplay:10.37,2013-04-19 15:59:00,
2013-04-19 12:01:00,71.2,54.2,29.33,WSW,248,5.8,5.8,55,0.00,CLR,,0.00,WeatherDisplay:10.37,2013-04-19 16:01:00,
2013-04-19 12:02:00,71.2,54.2,29.33,WNW,292,5.8,5.8,55,0.00,CLR,,0.00,WeatherDisplay:10.37,2013-04-19 16:02:00,
2013-04-19 12:05:00,71.1,54.1,29.33,West,270,8.1,8.1,55,0.00,CLR,,0.00,WeatherDisplay:10.37,2013-04-19 16:05:00,
2013-04-19 12:06:00,71.1,54.6,29.33,WSW,248,8.1,8.1,56,0.00,CLR,,0.00,WeatherDisplay:10.37,2013-04-19 16:06:00,
2013-04-19 12:07:00,71.1,54.6,29.33,SW,225,10.4,10.4,56,0.00,CLR,,0.00,WeatherDisplay:10.37,2013-04-19 16:07:00,
2013-04-19 12:10:00,70.9,54.9,29.33,WSW,248,8.1,8.1,57,0.00,CLR,,0.00,WeatherDisplay:10.37,2013-04-19 16:10:00,
2013-04-19 12:11:00,70.9,55.4,29.33,WSW,248,5.8,5.8,58,0.00,CLR,,0.00,WeatherDisplay:10.37,2013-04-19 16:11:00,
2013-04-19 12:12:00,70.7,54.7,29.33,NW,315,6.9,6.9,57,0.00,CLR,,0.00,WeatherDisplay:10.37,2013-04-19 16:12:00,
2013-04-19 12:15:00,70.9,54.9,29.33,WSW,248,13.0,13.0,57,0.00,CLR,,0.00,WeatherDisplay:10.37,2013-04-19 16:15:00,
2013-04-19 12:16:00,70.9,54.9,29.33,West,270,12.7,12.7,57,0.00,CLR,,0.00,WeatherDisplay:10.37,2013-04-19 16:16:00,
2013-04-19 12:17:00,70.7,55.2,29.33,WSW,248,8.1,8.1,58,0.00,CLR,,0.00,WeatherDisplay:10.37,2013-04-19 16:17:00,
2013-04-19 12:21:00,70.7,54.7,29.33,WSW,248,10.4,10.4,57,0.00,CLR,,0.00,WeatherDisplay:10.37,2013-04-19 16:21:00,
2013-04-19 12:22:00,70.7,55.2,29.33,WSW,248,8.1,8.1,58,0.00,CLR,,0.00,WeatherDisplay:10.37,2013-04-19 16:22:00,
2013-04-19 12:23:00,70.9,54.9,29.33,West,270,8.1,8.1,57,0.00,CLR,,0.00,WeatherDisplay:10.37,2013-04-19 16:23:00,
2013-04-19 12:26:00,71.1,55.1,29.31,WSW,248,11.5,11.5,57,0.00,CLR,,0.00,WeatherDisplay:10.37,2013-04-19 16:26:00,
2013-04-19 12:27:00,71.2,54.7,29.31,WNW,292,10.0,10.0,56,0.00,CLR,,0.00,WeatherDisplay:10.37,2013-04-19 16:27:00,
2013-04-19 12:28:00,71.2,54.7,29.31,SW,225,10.4,10.4,56,0.00,CLR,,0.00,WeatherDisplay:10.37,2013-04-19 16:28:00,
2013-04-19 12:31:00,71.6,54.1,29.31,WSW,248,9.7,9.7,54,0.00,CLR,,0.00,WeatherDisplay:10.37,2013-04-19 16:31:00,
2013-04-19 12:32:00,71.8,54.2,29.31,WNW,292,9.2,9.2,54,0.00,CLR,,0.00,WeatherDisplay:10.37,2013-04-19 16:32:00,
2013-04-19 12:33:00,72.0,54.4,29.31,West,270,10.2,10.2,54,0.00,CLR,,0.00,WeatherDisplay:10.37,2013-04-19 16:33:00,
2013-04-19 12:36:00,72.5,53.9,29.31,WNW,292,7.6,7.6,52,0.00,CLR,,0.00,WeatherDisplay:10.37,2013-04-19 16:36:00,
2013-04-19 12:37:00,72.7,53.5,29.31,WNW,292,8.1,8.1,51,0.00,CLR,,0.00,WeatherDisplay:10.37,2013-04-19 16:37:00,
2013-04-19 12:38:00,72.9,53.7,29.31,West,270,9.7,9.7,51,0.00,CLR,,0.00,WeatherDisplay:10.37,2013-04-19 16:38:00,
2013-04-19 12:39:00,72.9,53.7,29.31,SW,225,9.2,9.2,51,0.00,CLR,,0.00,WeatherDisplay:10.37,2013-04-19 16:39:00,
2013-04-19 12:41:00,73.0,52.7,29.31,SW,225,12.7,12.7,49,0.00,CLR,,0.00,WeatherDisplay:10.37,2013-04-19 16:41:00,
2013-04-19 12:42:00,73.0,52.7,29.31,WNW,292,10.4,10.4,49,0.00,CLR,,0.00,WeatherDisplay:10.37,2013-04-19 16:42:00,
2013-04-19 12:43:00,73.2,52.9,29.31,West,270,12.7,12.7,49,0.00,CLR,,0.00,WeatherDisplay:10.37,2013-04-19 16:43:00,
2013-04-19 12:44:00,73.2,52.9,29.31,West,270,11.5,11.5,49,0.00,CLR,,0.00,WeatherDisplay:10.37,2013-04-19 16:44:00,
2013-04-19 12:46:00,73.4,52.5,29.31,WSW,248,8.1,8.1,48,0.00,CLR,,0.00,WeatherDisplay:10.37,2013-04-19 16:46:00,
2013-04-19 12:47:00,73.4,52.5,29.31,West,270,6.9,6.9,48,0.00,CLR,,0.00,WeatherDisplay:10.37,2013-04-19 16:47:00,
2013-04-19 12:49:00,73.4,51.9,29.31,WSW,248,10.4,10.4,47,0.00,CLR,,0.00,WeatherDisplay:10.37,2013-04-19 16:49:00,
2013-04-19 12:52:00,73.6,52.1,29.31,West,270,12.7,12.7,47,0.00,CLR,,0.00,WeatherDisplay:10.37,2013-04-19 16:52:00,
2013-04-19 12:54:00,73.6,51.5,29.31,West,270,8.1,8.1,46,0.00,CLR,,0.00,WeatherDisplay:10.37,2013-04-19 16:54:00,
2013-04-19 12:55:00,73.6,51.5,29.31,WSW,248,9.2,9.2,46,0.00,CLR,,0.00,WeatherDisplay:10.37,2013-04-19 16:55:00,
2013-04-19 12:57:00,73.8,51.7,29.31,WSW,248,12.7,12.7,46,0.00,CLR,,0.00,WeatherDisplay:10.37,2013-04-19 16:57:00,
2013-04-19 12:59:00,73.9,51.3,29.31,WSW,248,8.1,8.1,45,0.00,CLR,,0.00,WeatherDisplay:10.37,2013-04-19 16:59:00,
2013-04-19 13:00:00,73.9,51.3,29.31,WSW,248,11.5,11.5,45,0.00,CLR,,0.00,WeatherDisplay:10.37,2013-04-19 17:00:00,
2013-04-19 13:02:00,74.1,50.8,29.31,WNW,292,18.4,18.4,44,0.00,CLR,,0.00,WeatherDisplay:10.37,2013-04-19 17:02:00,
2013-04-19 13:03:00,74.1,50.8,29.31,WNW,292,10.4,10.4,44,0.00,CLR,,0.00,WeatherDisplay:10.37,2013-04-19 17:03:00,
2013-04-19 13:04:00,74.1,50.8,29.31,West,270,15.0,15.0,44,0.00,CLR,,0.00,WeatherDisplay:10.37,2013-04-19 17:04:00,
2013-04-19 13:05:00,74.3,51.0,29.31,WSW,248,15.0,15.0,44,0.00,CLR,,0.00,WeatherDisplay:10.37,2013-04-19 17:05:00,
2013-04-19 13:07:00,74.3,51.0,29.31,WSW,248,11.5,11.5,44,0.00,CLR,,0.00,WeatherDisplay:10.37,2013-04-19 17:07:00,
2013-04-19 13:08:00,74.3,51.0,29.31,WSW,248,11.5,11.5,44,0.00,CLR,,0.00,WeatherDisplay:10.37,2013-04-19 17:08:00,
2013-04-19 13:10:00,74.3,51.0,29.28,West,270,11.5,11.5,44,0.00,CLR,,0.00,WeatherDisplay:10.37,2013-04-19 17:10:00,
2013-04-19 13:12:00,74.1,50.8,29.28,WSW,248,16.1,16.1,44,0.00,CLR,,0.00,WeatherDisplay:10.37,2013-04-19 17:12:00,
2013-04-19 13:13:00,74.1,50.8,29.28,WSW,248,8.1,8.1,44,0.00,CLR,,0.00,WeatherDisplay:10.37,2013-04-19 17:13:00,
2013-04-19 13:15:00,73.9,51.3,29.28,WSW,248,11.5,11.5,45,0.00,CLR,,0.00,WeatherDisplay:10.37,2013-04-19 17:15:00,
2013-04-19 13:17:00,73.8,51.1,29.28,West,270,13.8,13.8,45,0.00,CLR,,0.00,WeatherDisplay:10.37,2013-04-19 17:17:00,
2013-04-19 13:18:00,73.8,51.1,29.28,WNW,292,15.4,15.4,45,0.00,CLR,,0.00,WeatherDisplay:10.37,2013-04-19 17:18:00,
2013-04-19 13:20:00,73.8,51.1,29.28,WSW,248,8.1,8.1,45,0.00,CLR,,0.00,WeatherDisplay:10.37,2013-04-19 17:20:00,
2013-04-19 13:21:00,73.8,51.7,29.28,WSW,248,10.4,10.4,46,0.00,CLR,,0.00,WeatherDisplay:10.37,2013-04-19 17:21:00,
2013-04-19 13:22:00,73.9,51.3,29.28,WSW,248,10.4,10.4,45,0.00,CLR,,0.00,WeatherDisplay:10.37,2013-04-19 17:22:00,
2013-04-19 13:23:00,73.9,51.3,29.28,NW,315,19.6,19.6,45,0.00,CLR,,0.00,WeatherDisplay:10.37,2013-04-19 17:23:00,
2013-04-19 13:25:00,74.1,51.4,29.28,WNW,292,9.2,9.2,45,0.00,CLR,,0.00,WeatherDisplay:10.37,2013-04-19 17:25:00,
2013-04-19 13:26:00,74.1,50.8,29.28,WNW,292,15.0,15.0,44,0.00,CLR,,0.00,WeatherDisplay:10.37,2013-04-19 17:26:00,
2013-04-19 13:27:00,74.1,51.4,29.28,West,270,15.0,15.0,45,0.00,CLR,,0.00,WeatherDisplay:10.37,2013-04-19 17:27:00,
2013-04-19 13:28:00,74.1,51.4,29.28,West,270,17.6,17.6,45,0.00,CLR,,0.00,WeatherDisplay:10.37,2013-04-19 17:28:00,
2013-04-19 13:30:00,73.9,51.3,29.28,WNW,292,13.8,13.8,45,0.00,CLR,,0.00,WeatherDisplay:10.37,2013-04-19 17:30:00,
2013-04-19 13:31:00,74.1,51.4,29.28,West,270,13.8,13.8,45,0.00,CLR,,0.00,WeatherDisplay:10.37,2013-04-19 17:31:00,
2013-04-19 13:32:00,74.3,51.6,29.28,South,180,13.8,13.8,45,0.00,CLR,,0.00,WeatherDisplay:10.37,2013-04-19 17:32:00,
2013-04-19 13:33:00,74.3,51.6,29.28,WNW,292,6.9,6.9,45,0.00,CLR,,0.00,WeatherDisplay:10.37,2013-04-19 17:33:00,
2013-04-19 13:34:00,74.3,51.6,29.28,SW,225,9.2,9.2,45,0.00,CLR,,0.00,WeatherDisplay:10.37,2013-04-19 17:34:00,
2013-04-19 13:36:00,74.3,51.6,29.28,NW,315,11.5,11.5,45,0.00,CLR,,0.00,WeatherDisplay:10.37,2013-04-19 17:36:00,
2013-04-19 13:37:00,74.3,51.6,29.28,SSW,202,12.5,12.5,45,0.00,CLR,,0.00,WeatherDisplay:10.37,2013-04-19 17:37:00,
2013-04-19 13:38:00,74.3,51.6,29.28,West,270,12.7,12.7,45,0.00,CLR,,0.00,WeatherDisplay:10.37,2013-04-19 17:38:00,
2013-04-19 13:39:00,74.5,51.7,29.28,WNW,292,12.7,12.7,45,0.00,CLR,,0.00,WeatherDisplay:10.37,2013-04-19 17:39:00,
2013-04-19 13:41:00,74.7,51.9,29.25,WSW,248,6.9,6.9,45,0.00,CLR,,0.00,WeatherDisplay:10.37,2013-04-19 17:41:00,
2013-04-19 13:42:00,74.7,51.9,29.25,West,270,18.1,18.1,45,0.00,CLR,,0.00,WeatherDisplay:10.37,2013-04-19 17:42:00,
2013-04-19 13:43:00,74.5,51.7,29.25,SW,225,18.4,18.4,45,0.00,CLR,,0.00,WeatherDisplay:10.37,2013-04-19 17:43:00,
2013-04-19 13:44:00,74.5,51.7,29.25,NW,315,17.3,17.3,45,0.00,CLR,,0.00,WeatherDisplay:10.37,2013-04-19 17:44:00,
2013-04-19 13:46:00,74.5,52.3,29.25,NW,315,6.9,6.9,46,0.00,CLR,,0.00,WeatherDisplay:10.37,2013-04-19 17:46:00,
2013-04-19 13:47:00,74.1,52.0,29.25,WSW,248,13.8,13.8,46,0.00,CLR,,0.00,WeatherDisplay:10.37,2013-04-19 17:47:00,
2013-04-19 13:48:00,73.9,51.8,29.25,WSW,248,9.2,9.2,46,0.00,CLR,,0.00,WeatherDisplay:10.37,2013-04-19 17:48:00,
2013-04-19 13:49:00,73.9,51.8,29.25,WSW,248,9.2,9.2,46,0.00,CLR,,0.00,WeatherDisplay:10.37,2013-04-19 17:49:00,
2013-04-19 13:51:00,73.9,52.4,29.25,NW,315,10.4,10.4,47,0.00,CLR,,0.00,WeatherDisplay:10.37,2013-04-19 17:51:00,
2013-04-19 13:52:00,73.9,52.4,29.25,West,270,10.5,10.5,47,0.00,CLR,,0.00,WeatherDisplay:10.37,2013-04-19 17:52:00,
2013-04-19 13:53:00,73.8,52.3,29.25,West,270,15.2,15.2,47,0.00,CLR,,0.00,WeatherDisplay:10.37,2013-04-19 17:53:00,
2013-04-19 13:54:00,73.8,52.3,29.25,WSW,248,15.0,15.0,47,0.00,CLR,,0.00,WeatherDisplay:10.37,2013-04-19 17:54:00,
2013-04-19 13:57:00,73.9,52.4,29.28,WSW,248,10.7,10.7,47,0.00,CLR,,0.00,WeatherDisplay:10.37,2013-04-19 17:57:00,
2013-04-19 13:58:00,73.8,52.3,29.28,WNW,292,11.5,11.5,47,0.00,CLR,,0.00,WeatherDisplay:10.37,2013-04-19 17:58:00,
2013-04-19 13:59:00,73.9,52.4,29.28,West,270,12.7,12.7,47,0.00,CLR,,0.00,WeatherDisplay:10.37,2013-04-19 17:59:00,
2013-04-19 14:02:00,73.9,52.4,29.28,SW,225,12.7,12.7,47,0.00,CLR,,0.00,WeatherDisplay:10.37,2013-04-19 18:02:00,
2013-04-19 14:03:00,73.9,52.4,29.28,West,270,9.2,9.2,47,0.00,CLR,,0.00,WeatherDisplay:10.37,2013-04-19 18:03:00,
2013-04-19 14:04:00,74.1,52.6,29.28,West,270,8.1,8.1,47,0.00,CLR,,0.00,WeatherDisplay:10.37,2013-04-19 18:04:00,
2013-04-19 14:05:00,74.1,52.6,29.28,WNW,292,8.1,8.1,47,0.00,CLR,,0.00,WeatherDisplay:10.37,2013-04-19 18:05:00,
2013-04-19 14:07:00,74.1,52.6,29.28,WSW,248,5.8,5.8,47,0.00,CLR,,0.00,WeatherDisplay:10.37,2013-04-19 18:07:00,
2013-04-19 14:08:00,73.9,52.4,29.28,WNW,292,10.4,10.4,47,0.00,CLR,,0.00,WeatherDisplay:10.37,2013-04-19 18:08:00,
2013-04-19 14:09:00,73.9,52.4,29.28,WSW,248,19.6,19.6,47,0.00,CLR,,0.00,WeatherDisplay:10.37,2013-04-19 18:09:00,
2013-04-19 14:10:00,73.9,52.4,29.28,SW,225,13.8,13.8,47,0.00,CLR,,0.00,WeatherDisplay:10.37,2013-04-19 18:10:00,
2013-04-19 14:12:00,73.9,52.4,29.28,WNW,292,21.9,21.9,47,0.00,CLR,,0.00,WeatherDisplay:10.37,2013-04-19 18:12:00,
2013-04-19 14:13:00,73.8,52.3,29.28,West,270,21.9,21.9,47,0.00,CLR,,0.00,WeatherDisplay:10.37,2013-04-19 18:13:00,
2013-04-19 14:14:00,73.8,52.3,29.28,SW,225,15.0,15.0,47,0.00,CLR,,0.00,WeatherDisplay:10.37,2013-04-19 18:14:00,
2013-04-19 14:15:00,73.8,51.7,29.28,WNW,292,15.0,15.0,46,0.00,CLR,,0.00,WeatherDisplay:10.37,2013-04-19 18:15:00,
2013-04-19 14:17:00,73.8,51.7,29.28,NNW,338,17.3,17.3,46,0.00,CLR,,0.00,WeatherDisplay:10.37,2013-04-19 18:17:00,
2013-04-19 14:18:00,73.8,52.3,29.28,West,270,13.8,13.8,47,0.00,CLR,,0.00,WeatherDisplay:10.37,2013-04-19 18:18:00,
2013-04-19 14:19:00,73.8,51.7,29.28,WSW,248,18.4,18.4,46,0.00,CLR,,0.00,WeatherDisplay:10.37,2013-04-19 18:19:00,
2013-04-19 14:20:00,73.8,51.7,29.28,WNW,292,16.1,16.1,46,0.00,CLR,,0.00,WeatherDisplay:10.37,2013-04-19 18:20:00,
2013-04-19 14:22:00,73.4,51.9,29.28,WNW,292,28.8,28.8,47,0.00,CLR,,0.00,WeatherDisplay:10.37,2013-04-19 18:22:00,
2013-04-19 14:23:00,73.2,51.8,29.28,NW,315,20.7,20.7,47,0.00,CLR,,0.00,WeatherDisplay:10.37,2013-04-19 18:23:00,
2013-04-19 14:24:00,73.2,51.8,29.25,WSW,248,20.7,20.7,47,0.00,CLR,,0.00,WeatherDisplay:10.37,2013-04-19 18:24:00,
2013-04-19 14:25:00,73.2,51.8,29.25,WNW,292,15.0,15.0,47,0.00,CLR,,0.00,WeatherDisplay:10.37,2013-04-19 18:25:00,
2013-04-19 14:27:00,72.9,52.0,29.25,NW,315,10.4,10.4,48,0.00,CLR,,0.00,WeatherDisplay:10.37,2013-04-19 18:27:00,
2013-04-19 14:29:00,72.9,52.0,29.25,West,270,26.5,26.5,48,0.00,CLR,,0.00,WeatherDisplay:10.37,2013-04-19 18:29:00,
2013-04-19 14:30:00,72.7,52.4,29.25,ENE,68,10.4,10.7,49,0.00,CLR,,0.00,WeatherDisplay:10.37,2013-04-19 18:30:00,
2013-04-19 14:32:00,69.1,46.2,29.25,NW,315,8.7,8.7,44,0.00,CLR,,0.00,WeatherDisplay:10.37,2013-04-19 18:32:00,
2013-04-19 14:34:00,67.6,44.9,29.25,NNE,22,10.2,10.2,44,0.00,CLR,,0.00,WeatherDisplay:10.37,2013-04-19 18:34:00,
2013-04-19 14:35:00,66.4,43.8,29.25,NNE,22,10.4,10.4,44,0.00,CLR,,0.00,WeatherDisplay:10.37,2013-04-19 18:35:00,
2013-04-19 14:38:00,63.7,43.1,29.25,WNW,292,12.8,12.8,47,0.00,CLR,,0.00,WeatherDisplay:10.37,2013-04-19 18:38:00,
2013-04-19 14:39:00,62.4,43.0,29.31,NE,45,12.7,12.7,49,0.00,CLR,,0.00,WeatherDisplay:10.37,2013-04-19 18:39:00,
2013-04-19 14:40:00,62.1,43.2,29.31,NNW,338,9.2,9.2,50,0.00,CLR,,0.00,WeatherDisplay:10.37,2013-04-19 18:40:00,
2013-04-19 14:43:00,60.1,42.4,29.31,North,0,8.1,8.1,52,0.00,CLR,,0.00,WeatherDisplay:10.37,2013-04-19 18:43:00,
2013-04-19 14:44:00,59.5,41.9,29.31,NNE,22,10.7,10.7,52,0.00,CLR,,0.00,WeatherDisplay:10.37,2013-04-19 18:44:00,
2013-04-19 14:45:00,59.2,42.0,29.31,WNW,292,10.4,10.4,53,0.00,CLR,,0.00,WeatherDisplay:10.37,2013-04-19 18:45:00,
2013-04-19 14:46:00,59.2,42.0,29.31,West,270,10.4,10.4,53,0.00,CLR,,0.00,WeatherDisplay:10.37,2013-04-19 18:46:00,
2013-04-19 14:48:00,58.3,42.2,29.31,NNE,22,13.0,13.0,55,0.00,CLR,,0.00,WeatherDisplay:10.37,2013-04-19 18:48:00,
2013-04-19 14:50:00,57.9,42.3,29.31,West,270,10.4,10.4,56,0.00,CLR,,0.00,WeatherDisplay:10.37,2013-04-19 18:50:00,
2013-04-19 14:53:00,57.7,42.1,29.31,NNW,338,8.7,8.7,56,0.00,CLR,,0.00,WeatherDisplay:10.37,2013-04-19 18:53:00,
2013-04-19 14:54:00,57.7,42.1,29.31,NNW,338,9.2,9.2,56,0.00,CLR,,0.00,WeatherDisplay:10.37,2013-04-19 18:54:00,
2013-04-19 14:55:00,56.3,42.1,29.31,NNW,338,9.2,9.2,59,0.00,CLR,,0.00,WeatherDisplay:10.37,2013-04-19 18:55:00,
2013-04-19 14:58:00,54.5,41.3,29.31,ESE,112,9.2,9.2,61,0.00,CLR,,0.00,WeatherDisplay:10.37,2013-04-19 18:58:00,
2013-04-19 14:59:00,54.5,41.3,29.31,ESE,112,9.2,9.2,61,0.00,CLR,,0.00,WeatherDisplay:10.37,2013-04-19 18:59:00,
2013-04-19 15:00:00,54.3,40.7,29.31,North,0,4.6,4.6,60,0.00,CLR,,0.00,WeatherDisplay:10.37,2013-04-19 19:00:00,
2013-04-19 15:04:00,53.2,41.0,29.31,North,0,3.5,4.3,63,0.00,CLR,,0.00,WeatherDisplay:10.37,2013-04-19 19:04:00,
2013-04-19 15:05:00,53.1,40.8,29.31,North,0,3.5,4.3,63,0.00,CLR,,0.00,WeatherDisplay:10.37,2013-04-19 19:05:00,
2013-04-19 15:09:00,52.3,39.7,29.31,North,0,4.6,6.7,62,0.00,CLR,,0.00,WeatherDisplay:10.37,2013-04-19 19:09:00,
2013-04-19 15:10:00,52.2,39.9,29.33,NNE,22,12.1,12.1,63,0.00,CLR,,0.00,WeatherDisplay:10.37,2013-04-19 19:10:00,
2013-04-19 15:14:00,51.3,39.5,29.33,NW,315,12.7,12.7,64,0.00,CLR,,0.00,WeatherDisplay:10.37,2013-04-19 19:14:00,
2013-04-19 15:15:00,51.1,39.3,29.33,NW,315,12.7,12.7,64,0.00,CLR,,0.00,WeatherDisplay:10.37,2013-04-19 19:15:00,
2013-04-19 15:16:00,51.1,39.3,29.33,NW,315,5.8,8.5,64,0.00,CLR,,0.00,WeatherDisplay:10.37,2013-04-19 19:16:00,
2013-04-19 15:19:00,50.7,39.8,29.33,SSE,158,3.6,6.2,66,0.00,CLR,,0.00,WeatherDisplay:10.37,2013-04-19 19:19:00,
2013-04-19 15:20:00,50.5,39.6,29.33,SSE,158,3.6,6.2,66,0.00,CLR,,0.00,WeatherDisplay:10.37,2013-04-19 19:20:00,
2013-04-19 15:21:00,50.5,39.6,29.33,SSE,158,3.6,6.2,66,0.00,CLR,,0.00,WeatherDisplay:10.37,2013-04-19 19:21:00,
2013-04-19 15:25:00,50.2,39.3,29.33,WNW,292,6.9,6.9,66,0.00,CLR,,0.00,WeatherDisplay:10.37,2013-04-19 19:25:00,
2013-04-19 15:26:00,50.0,39.5,29.33,NW,315,10.4,10.4,67,0.00,CLR,,0.00,WeatherDisplay:10.37,2013-04-19 19:26:00,
2013-04-19 15:30:00,50.0,39.1,29.33,NNW,338,12.1,12.1,66,0.00,CLR,,0.00,WeatherDisplay:10.37,2013-04-19 19:30:00,
2013-04-19 15:31:00,50.0,39.1,29.33,ENE,68,11.5,11.5,66,0.00,CLR,,0.00,WeatherDisplay:10.37,2013-04-19 19:31:00,
2013-04-19 15:35:00,50.5,39.6,29.33,NNE,22,10.4,10.4,66,0.00,CLR,,0.00,WeatherDisplay:10.37,2013-04-19 19:35:00,
2013-04-19 15:36:00,51.1,40.1,29.33,East,90,5.6,5.6,66,0.00,CLR,,0.00,WeatherDisplay:10.37,2013-04-19 19:36:00,
2013-04-19 15:40:00,51.3,39.1,29.33,NNW,338,9.2,9.2,63,0.00,CLR,,0.00,WeatherDisplay:10.37,2013-04-19 19:40:00,
2013-04-19 15:41:00,51.3,39.1,29.33,NNW,338,9.2,9.2,63,0.00,CLR,,0.00,WeatherDisplay:10.37,2013-04-19 19:41:00,
2013-04-19 15:45:00,50.5,39.2,29.33,NNW,338,9.2,9.2,65,0.00,CLR,,0.00,WeatherDisplay:10.37,2013-04-19 19:45:00,
2013-04-19 15:46:00,50.5,39.2,29.33,NNW,338,9.2,9.2,65,0.00,CLR,,0.00,WeatherDisplay:10.37,2013-04-19 19:46:00,
2013-04-19 15:47:00,50.2,38.1,29.33,WSW,248,9.2,9.2,63,0.00,CLR,,0.00,WeatherDisplay:10.37,2013-04-19 19:47:00,
2013-04-19 15:50:00,49.6,37.1,29.33,ESE,112,15.0,15.0,62,0.00,CLR,,0.00,WeatherDisplay:10.37,2013-04-19 19:50:00,
2013-04-19 15:51:00,49.6,37.1,29.33,WNW,292,15.0,15.0,62,0.00,CLR,,0.00,WeatherDisplay:10.37,2013-04-19 19:51:00,
2013-04-19 15:52:00,49.6,37.6,29.33,NNW,338,10.7,10.7,63,0.00,CLR,,0.00,WeatherDisplay:10.37,2013-04-19 19:52:00,
2013-04-19 15:55:00,48.9,36.9,29.36,North,0,8.1,8.1,63,0.00,CLR,,0.00,WeatherDisplay:10.37,2013-04-19 19:55:00,
2013-04-19 15:56:00,48.9,36.9,29.36,ENE,68,8.1,8.1,63,0.00,CLR,,0.00,WeatherDisplay:10.37,2013-04-19 19:56:00,
2013-04-19 15:57:00,48.9,36.9,29.36,ENE,68,12.7,12.7,63,0.00,CLR,,0.00,WeatherDisplay:10.37,2013-04-19 19:57:00,
2013-04-19 16:01:00,48.7,37.5,29.36,ESE,112,6.9,6.9,65,0.00,CLR,,0.00,WeatherDisplay:10.37,2013-04-19 20:01:00,
2013-04-19 16:02:00,48.6,37.7,29.36,NW,315,15.4,15.4,66,0.00,CLR,,0.00,WeatherDisplay:10.37,2013-04-19 20:02:00,
2013-04-19 16:06:00,47.7,39.4,29.36,NW,315,4.6,6.0,73,0.00,CLR,,0.00,WeatherDisplay:10.37,2013-04-19 20:06:00,
2013-04-19 16:07:00,47.7,39.4,29.36,NW,315,3.8,6.0,73,0.00,CLR,,0.00,WeatherDisplay:10.37,2013-04-19 20:07:00,
2013-04-19 16:11:00,46.9,39.4,29.39,WNW,292,8.1,8.1,75,0.00,CLR,,0.00,WeatherDisplay:10.37,2013-04-19 20:11:00,
2013-04-19 16:12:00,46.9,39.4,29.39,WNW,292,5.9,6.2,75,0.00,CLR,,0.00,WeatherDisplay:10.37,2013-04-19 20:12:00,
2013-04-19 16:16:00,46.4,38.6,29.39,South,180,5.8,10.2,74,0.00,CLR,,0.00,WeatherDisplay:10.37,2013-04-19 20:16:00,
2013-04-19 16:17:00,46.4,38.6,29.39,West,270,5.8,5.8,74,0.00,CLR,,0.00,WeatherDisplay:10.37,2013-04-19 20:17:00,
2013-04-19 16:21:00,46.0,39.2,29.39,North,0,5.8,5.8,77,0.00,CLR,,0.00,WeatherDisplay:10.37,2013-04-19 20:21:00,
2013-04-19 16:22:00,46.0,39.2,29.39,North,0,5.8,5.8,77,0.00,CLR,,0.00,WeatherDisplay:10.37,2013-04-19 20:22:00,
2013-04-19 16:23:00,46.0,39.2,29.39,WNW,292,13.8,13.8,77,0.00,CLR,,0.00,WeatherDisplay:10.37,2013-04-19 20:23:00,
2013-04-19 16:26:00,45.5,39.4,29.42,NNE,22,15.4,15.4,79,0.00,CLR,,0.00,WeatherDisplay:10.37,2013-04-19 20:26:00,
2013-04-19 16:27:00,45.5,39.4,29.42,ENE,68,15.0,15.0,79,0.00,CLR,,0.00,WeatherDisplay:10.37,2013-04-19 20:27:00,
2013-04-19 16:28:00,45.5,39.4,29.42,North,0,15.0,15.0,79,0.00,CLR,,0.00,WeatherDisplay:10.37,2013-04-19 20:28:00,
2013-04-19 16:31:00,44.8,39.6,29.42,North,0,12.7,12.7,82,0.00,CLR,,0.00,WeatherDisplay:10.37,2013-04-19 20:31:00,
2013-04-19 16:32:00,44.8,39.6,29.42,NW,315,9.2,9.2,82,0.00,CLR,,0.00,WeatherDisplay:10.37,2013-04-19 20:32:00,
2013-04-19 16:34:00,44.8,39.6,29.42,SW,225,8.1,8.1,82,0.00,CLR,,0.00,WeatherDisplay:10.37,2013-04-19 20:34:00,
2013-04-19 16:37:00,44.6,39.1,29.42,SW,225,3.8,6.4,81,0.00,CLR,,0.00,WeatherDisplay:10.37,2013-04-19 20:37:00,
2013-04-19 16:38:00,44.6,38.8,29.42,SW,225,3.8,6.4,80,0.00,CLR,,0.00,WeatherDisplay:10.37,2013-04-19 20:38:00,
2013-04-19 16:39:00,44.6,38.8,29.42,NNW,338,13.8,13.8,80,0.00,CLR,,0.00,WeatherDisplay:10.37,2013-04-19 20:39:00,
2013-04-19 16:42:00,44.2,39.1,29.42,SSE,158,5.8,5.8,82,0.00,CLR,,0.00,WeatherDisplay:10.37,2013-04-19 20:42:00,
2013-04-19 16:43:00,44.2,39.1,29.42,SSE,158,5.8,5.8,82,0.00,CLR,,0.00,WeatherDisplay:10.37,2013-04-19 20:43:00,
2013-04-19 16:49:00,43.3,38.5,29.42,NNE,22,15.0,15.0,83,0.00,CLR,,0.00,WeatherDisplay:10.37,2013-04-19 20:49:00,
2013-04-19 16:50:00,43.3,38.5,29.42,NNE,22,21.9,21.9,83,0.00,CLR,,0.00,WeatherDisplay:10.37,2013-04-19 20:50:00,
2013-04-19 16:54:00,43.0,38.5,29.42,WNW,292,10.4,10.4,84,0.00,CLR,,0.00,WeatherDisplay:10.37,2013-04-19 20:54:00,
2013-04-19 16:55:00,43.0,38.5,29.42,WNW,292,10.4,10.4,84,0.00,CLR,,0.00,WeatherDisplay:10.37,2013-04-19 20:55:00,
2013-04-19 16:56:00,43.0,38.5,29.42,WNW,292,5.8,9.8,84,0.00,CLR,,0.00,WeatherDisplay:10.37,2013-04-19 20:56:00,
2013-04-19 17:00:00,43.2,38.0,29.42,North,0,9.2,10.7,82,0.00,CLR,,0.00,WeatherDisplay:10.37,2013-04-19 21:00:00,
2013-04-19 17:01:00,43.2,38.0,29.42,North,0,4.9,10.7,82,0.00,CLR,,0.00,WeatherDisplay:10.37,2013-04-19 21:01:00,
2013-04-19 17:05:00,43.0,36.9,29.42,North,0,4.9,10.7,79,0.00,CLR,,0.00,WeatherDisplay:10.37,2013-04-19 21:05:00,
2013-04-19 17:06:00,43.2,37.1,29.42,North,0,4.9,10.7,79,0.00,CLR,,0.00,WeatherDisplay:10.37,2013-04-19 21:06:00,
2013-04-19 17:10:00,43.0,37.2,29.45,NW,315,9.8,9.8,80,0.00,CLR,,0.00,WeatherDisplay:10.37,2013-04-19 21:10:00,
2013-04-19 17:11:00,42.8,37.1,29.45,SSE,158,15.0,15.0,80,0.00,CLR,,0.00,WeatherDisplay:10.37,2013-04-19 21:11:00,
2013-04-19 17:12:00,42.8,36.7,29.45,SSE,158,15.0,15.0,79,0.00,CLR,,0.00,WeatherDisplay:10.37,2013-04-19 21:12:00,
2013-04-19 17:15:00,42.8,37.4,29.45,NW,315,8.5,9.4,81,0.00,CLR,,0.00,WeatherDisplay:10.37,2013-04-19 21:15:00,
2013-04-19 17:16:00,42.6,37.2,29.45,NNW,338,10.7,10.7,81,0.00,CLR,,0.00,WeatherDisplay:10.37,2013-04-19 21:16:00,
2013-04-19 17:17:00,42.6,37.2,29.45,NNW,338,10.7,10.7,81,0.00,CLR,,0.00,WeatherDisplay:10.37,2013-04-19 21:17:00,
2013-04-19 17:20:00,42.8,37.4,29.45,NNW,338,22.3,22.3,81,0.00,CLR,,0.00,WeatherDisplay:10.37,2013-04-19 21:20:00,
2013-04-19 17:21:00,42.8,37.4,29.45,NNW,338,21.9,21.9,81,0.00,CLR,,0.00,WeatherDisplay:10.37,2013-04-19 21:21:00,
2013-04-19 17:22:00,42.8,36.7,29.45,NNW,338,8.5,8.5,79,0.00,CLR,,0.00,WeatherDisplay:10.37,2013-04-19 21:22:00,
2013-04-19 17:25:00,42.8,36.7,29.45,North,0,9.7,9.7,79,0.00,CLR,,0.00,WeatherDisplay:10.37,2013-04-19 21:25:00,
2013-04-19 17:26:00,42.8,36.7,29.45,North,0,9.7,9.7,79,0.00,CLR,,0.00,WeatherDisplay:10.37,2013-04-19 21:26:00,
2013-04-19 17:27:00,42.8,36.7,29.45,North,0,9.7,9.7,79,0.00,CLR,,0.00,WeatherDisplay:10.37,2013-04-19 21:27:00,
2013-04-19 17:31:00,42.8,36.7,29.45,WNW,292,10.4,10.4,79,0.00,CLR,,0.00,WeatherDisplay:10.37,2013-04-19 21:31:00,
2013-04-19 17:32:00,42.8,37.1,29.45,NNW,338,5.8,5.9,80,0.00,CLR,,0.00,WeatherDisplay:10.37,2013-04-19 21:32:00,
2013-04-19 17:33:00,42.6,36.6,29.45,NE,45,12.1,12.1,79,0.00,CLR,,0.00,WeatherDisplay:10.37,2013-04-19 21:33:00,
2013-04-19 17:36:00,42.3,36.8,29.45,WNW,292,17.3,17.3,81,0.05,RA,,0.05,WeatherDisplay:10.37,2013-04-19 21:36:00,
2013-04-19 17:37:00,42.3,36.8,29.45,WNW,292,17.3,17.3,81,0.05,RA,,0.05,WeatherDisplay:10.37,2013-04-19 21:37:00,
2013-04-19 17:38:00,42.4,36.7,29.45,WNW,292,17.3,17.3,80,0.05,RA,,0.05,WeatherDisplay:10.37,2013-04-19 21:38:00,
2013-04-19 17:42:00,42.3,36.8,29.48,WSW,248,9.8,10.2,81,0.05,RA,,0.05,WeatherDisplay:10.37,2013-04-19 21:42:00,
2013-04-19 17:43:00,42.4,37.0,29.48,NE,45,9.2,9.2,81,0.05,RA,,0.05,WeatherDisplay:10.37,2013-04-19 21:43:00,
2013-04-19 17:47:00,42.4,37.3,29.48,ESE,112,11.5,11.5,82,0.05,CLR,,0.05,WeatherDisplay:10.37,2013-04-19 21:47:00,
2013-04-19 17:48:00,42.4,37.0,29.48,ESE,112,11.5,11.5,81,0.05,CLR,,0.05,WeatherDisplay:10.37,2013-04-19 21:48:00,
2013-04-19 17:52:00,42.4,36.7,29.48,NW,315,12.7,12.7,80,0.05,CLR,,0.05,WeatherDisplay:10.37,2013-04-19 21:52:00,
2013-04-19 17:53:00,42.4,36.7,29.48,NW,315,7.4,9.7,80,0.05,CLR,,0.05,WeatherDisplay:10.37,2013-04-19 21:53:00,
2013-04-19 17:54:00,42.4,36.7,29.48,NW,315,7.4,9.7,80,0.05,CLR,,0.05,WeatherDisplay:10.37,2013-04-19 21:54:00,
2013-04-19 17:57:00,42.6,36.6,29.48,NW,315,7.4,9.7,79,0.05,CLR,,0.05,WeatherDisplay:10.37,2013-04-19 21:57:00,
2013-04-19 17:58:00,42.6,36.6,29.48,NW,315,6.9,6.9,79,0.05,CLR,,0.05,WeatherDisplay:10.37,2013-04-19 21:58:00,
2013-04-19 17:59:00,42.8,37.1,29.48,SW,225,5.9,5.9,80,0.05,CLR,,0.05,WeatherDisplay:10.37,2013-04-19 21:59:00,
2013-04-19 18:02:00,43.0,37.2,29.48,South,180,6.0,6.0,80,0.05,CLR,,0.05,WeatherDisplay:10.37,2013-04-19 22:02:00,
2013-04-19 18:03:00,43.0,37.2,29.48,South,180,6.0,6.0,80,0.05,CLR,,0.05,WeatherDisplay:10.37,2013-04-19 22:03:00,
2013-04-19 18:04:00,43.0,36.6,29.48,South,180,6.0,6.0,78,0.05,CLR,,0.05,WeatherDisplay:10.37,2013-04-19 22:04:00,
2013-04-19 18:08:00,43.2,37.1,29.48,WSW,248,4.6,4.6,79,0.05,CLR,,0.05,WeatherDisplay:10.37,2013-04-19 22:08:00,
2013-04-19 18:09:00,43.2,35.8,29.48,East,90,12.7,12.7,75,0.05,CLR,,0.05,WeatherDisplay:10.37,2013-04-19 22:09:00,
2013-04-19 18:13:00,43.3,36.3,29.48,NNW,338,1.1,0.0,76,0.05,CLR,,0.05,WeatherDisplay:10.37,2013-04-19 22:13:00,
2013-04-19 18:14:00,43.3,35.9,29.48,NW,315,13.0,0.0,75,0.05,CLR,,0.05,WeatherDisplay:10.37,2013-04-19 22:14:00,
2013-04-19 18:18:00,43.3,35.6,29.48,NW,315,13.0,0.0,74,0.05,CLR,,0.05,WeatherDisplay:10.37,2013-04-19 22:18:00,
2013-04-19 18:19:00,43.3,35.6,29.48,East,90,12.7,12.7,74,0.05,CLR,,0.05,WeatherDisplay:10.37,2013-04-19 22:19:00,
2013-04-19 18:20:00,43.3,35.6,29.48,NW,315,12.7,12.7,74,0.05,CLR,,0.05,WeatherDisplay:10.37,2013-04-19 22:20:00,
2013-04-19 18:23:00,43.3,34.6,29.48,West,270,8.1,8.1,71,0.05,CLR,,0.05,WeatherDisplay:10.37,2013-04-19 22:23:00,
2013-04-19 18:24:00,43.3,34.6,29.48,NNE,22,9.2,10.0,71,0.05,CLR,,0.05,WeatherDisplay:10.37,2013-04-19 22:24:00,
2013-04-19 18:25:00,43.3,34.6,29.51,NNW,338,9.2,9.2,71,0.05,CLR,,0.05,WeatherDisplay:10.37,2013-04-19 22:25:00,
2013-04-19 18:28:00,43.5,34.4,29.51,WNW,292,5.8,6.2,70,0.05,CLR,,0.05,WeatherDisplay:10.37,2013-04-19 22:28:00,
2013-04-19 18:29:00,43.5,34.4,29.51,WSW,248,7.4,7.4,70,0.05,CLR,,0.05,WeatherDisplay:10.37,2013-04-19 22:29:00,
2013-04-19 18:30:00,43.5,33.7,29.51,WSW,248,9.2,9.2,68,0.05,CLR,,0.05,WeatherDisplay:10.37,2013-04-19 22:30:00,
2013-04-19 18:34:00,43.5,34.0,29.51,West,270,8.1,8.1,69,0.00,CLR,,0.05,WeatherDisplay:10.37,2013-04-19 22:34:00,
2013-04-19 18:35:00,43.5,33.7,29.51,NNW,338,12.7,12.7,68,0.00,CLR,,0.05,WeatherDisplay:10.37,2013-04-19 22:35:00,
2013-04-19 18:39:00,43.7,33.5,29.51,SSE,158,25.3,25.3,67,0.00,CLR,,0.05,WeatherDisplay:10.37,2013-04-19 22:39:00,
2013-04-19 18:40:00,43.5,33.3,29.51,West,270,6.4,6.4,67,0.00,CLR,,0.05,WeatherDisplay:10.37,2013-04-19 22:40:00,
2013-04-19 18:41:00,43.7,33.1,29.51,SSW,202,6.9,7.1,66,0.00,CLR,,0.05,WeatherDisplay:10.37,2013-04-19 22:41:00,
2013-04-19 18:44:00,43.5,32.9,29.51,NNW,338,8.1,8.1,66,0.00,CLR,,0.05,WeatherDisplay:10.37,2013-04-19 22:44:00,
2013-04-19 18:45:00,43.5,32.9,29.51,WNW,292,8.1,8.1,66,0.00,CLR,,0.05,WeatherDisplay:10.37,2013-04-19 22:45:00,
2013-04-19 18:46:00,43.5,32.9,29.51,West,270,10.4,10.4,66,0.00,CLR,,0.05,WeatherDisplay:10.37,2013-04-19 22:46:00,
2013-04-19 18:50:00,43.5,33.3,29.51,SSE,158,5.8,5.8,67,0.00,CLR,,0.05,WeatherDisplay:10.37,2013-04-19 22:50:00,
2013-04-19 18:51:00,43.5,33.3,29.51,ENE,68,6.0,6.0,67,0.00,CLR,,0.05,WeatherDisplay:10.37,2013-04-19 22:51:00,
2013-04-19 18:55:00,43.5,32.9,29.54,SSE,158,5.8,7.1,66,0.00,CLR,,0.05,WeatherDisplay:10.37,2013-04-19 22:55:00,
2013-04-19 18:56:00,43.5,32.5,29.54,SSE,158,5.8,7.1,65,0.00,CLR,,0.05,WeatherDisplay:10.37,2013-04-19 22:56:00,
2013-04-19 19:00:00,43.5,32.9,29.54,NNE,22,5.9,6.2,66,0.00,CLR,,0.05,WeatherDisplay:10.37,2013-04-19 23:00:00,
2013-04-19 19:01:00,43.5,32.9,29.54,NNE,22,5.9,6.2,66,0.00,CLR,,0.05,WeatherDisplay:10.37,2013-04-19 23:01:00,
2013-04-19 19:05:00,43.5,32.9,29.54,WNW,292,11.5,11.5,66,0.00,CLR,,0.05,WeatherDisplay:10.37,2013-04-19 23:05:00,
2013-04-19 19:06:00,43.5,32.9,29.54,WNW,292,3.6,6.9,66,0.00,CLR,,0.05,WeatherDisplay:10.37,2013-04-19 23:06:00,
2013-04-19 19:10:00,43.3,32.4,29.48,WNW,292,9.2,9.2,65,0.00,CLR,,0.05,WeatherDisplay:10.37,2013-04-19 23:10:00,
2013-04-19 19:11:00,43.3,32.4,29.48,West,270,9.2,9.2,65,0.00,CLR,,0.05,WeatherDisplay:10.37,2013-04-19 23:11:00,
2013-04-19 19:15:00,43.3,32.0,29.48,WNW,292,10.4,10.4,64,0.00,CLR,,0.05,WeatherDisplay:10.37,2013-04-19 23:15:00,
2013-04-19 19:16:00,43.3,32.0,29.48,WNW,292,10.4,10.4,64,0.00,CLR,,0.05,WeatherDisplay:10.37,2013-04-19 23:16:00,
2013-04-19 19:20:00,43.5,31.8,29.48,NW,315,12.7,12.7,63,0.00,CLR,,0.05,WeatherDisplay:10.37,2013-04-19 23:20:00,
2013-04-19 19:21:00,43.5,31.8,29.48,NW,315,11.5,11.5,63,0.00,CLR,,0.05,WeatherDisplay:10.37,2013-04-19 23:21:00,
2013-04-19 19:22:00,43.5,32.1,29.48,NW,315,5.8,5.8,64,0.00,CLR,,0.05,WeatherDisplay:10.37,2013-04-19 23:22:00,
2013-04-19 19:26:00,43.5,31.4,29.51,ENE,68,6.9,6.9,62,0.00,CLR,,0.05,WeatherDisplay:10.37,2013-04-19 23:26:00,
2013-04-19 19:27:00,43.5,31.8,29.51,North,0,10.0,10.0,63,0.00,CLR,,0.05,WeatherDisplay:10.37,2013-04-19 23:27:00,
2013-04-19 19:31:00,43.3,31.6,29.51,WNW,292,8.1,8.1,63,0.00,CLR,,0.05,WeatherDisplay:10.37,2013-04-19 23:31:00,
2013-04-19 19:32:00,43.3,31.6,29.51,WNW,292,8.1,8.1,63,0.00,CLR,,0.05,WeatherDisplay:10.37,2013-04-19 23:32:00,
2013-04-19 19:36:00,43.5,31.4,29.51,SSE,158,5.9,5.9,62,0.00,CLR,,0.05,WeatherDisplay:10.37,2013-04-19 23:36:00,
2013-04-19 19:37:00,43.5,31.4,29.51,SSE,158,5.9,5.9,62,0.00,CLR,,0.05,WeatherDisplay:10.37,2013-04-19 23:37:00,
2013-04-19 19:41:00,43.5,31.0,29.51,East,90,17.3,17.3,61,0.00,CLR,,0.05,WeatherDisplay:10.37,2013-04-19 23:41:00,
2013-04-19 19:42:00,43.5,31.0,29.51,West,270,4.6,4.6,61,0.00,CLR,,0.05,WeatherDisplay:10.37,2013-04-19 23:42:00,
2013-04-19 19:43:00,43.5,31.0,29.51,NW,315,6.0,6.0,61,0.00,CLR,,0.05,WeatherDisplay:10.37,2013-04-19 23:43:00,
2013-04-19 19:47:00,43.7,31.1,29.51,WNW,292,15.4,15.4,61,0.00,CLR,,0.05,WeatherDisplay:10.37,2013-04-19 23:47:00,
2013-04-19 19:48:00,43.5,30.5,29.51,North,0,15.0,15.0,60,0.00,CLR,,0.05,WeatherDisplay:10.37,2013-04-19 23:48:00,
2013-04-19 19:52:00,43.7,31.1,29.51,NW,315,2.3,2.3,61,0.00,CLR,,0.05,WeatherDisplay:10.37,2013-04-19 23:52:00,
2013-04-19 19:53:00,43.7,30.7,29.51,NNE,22,5.4,5.4,60,0.00,CLR,,0.05,WeatherDisplay:10.37,2013-04-19 23:53:00,
2013-04-19 19:57:00,43.7,29.9,29.51,SSW,202,10.4,10.4,58,0.00,CLR,,0.05,WeatherDisplay:10.37,2013-04-19 23:57:00,
2013-04-19 19:58:00,43.7,29.9,29.51,SW,225,10.4,10.4,58,0.00,CLR,,0.05,WeatherDisplay:10.37,2013-04-19 23:58:00,
2013-04-19 19:59:00,43.7,29.9,29.51,ENE,68,8.1,8.1,58,0.00,CLR,,0.05,WeatherDisplay:10.37,2013-04-19 23:59:00,
2013-04-19 20:02:00,43.7,29.0,29.51,ENE,68,12.7,12.7,56,0.00,CLR,,0.05,WeatherDisplay:10.37,2013-04-20 00:02:00,
2013-04-19 20:03:00,43.7,29.0,29.51,East,90,12.7,12.7,56,0.00,CLR,,0.05,WeatherDisplay:10.37,2013-04-20 00:03:00,
2013-04-19 20:04:00,43.7,29.5,29.51,NNW,338,15.2,15.2,57,0.00,CLR,,0.05,WeatherDisplay:10.37,2013-04-20 00:04:00,
2013-04-19 20:07:00,43.5,29.3,29.51,ESE,112,5.8,5.8,57,0.00,CLR,,0.05,WeatherDisplay:10.37,2013-04-20 00:07:00,
2013-04-19 20:08:00,43.5,29.3,29.51,NW,315,5.8,5.8,57,0.00,CLR,,0.05,WeatherDisplay:10.37,2013-04-20 00:08:00,
2013-04-19 20:09:00,43.5,29.3,29.51,NNW,338,10.0,10.0,57,0.00,CLR,,0.05,WeatherDisplay:10.37,2013-04-20 00:09:00,
2013-04-19 20:12:00,43.5,29.7,29.54,NW,315,8.1,8.1,58,0.00,CLR,,0.05,WeatherDisplay:10.37,2013-04-20 00:12:00,
2013-04-19 20:13:00,43.5,29.7,29.54,East,90,9.2,9.2,58,0.00,CLR,,0.05,WeatherDisplay:10.37,2013-04-20 00:13:00,
2013-04-19 20:14:00,43.5,29.7,29.54,NE,45,9.8,9.8,58,0.00,CLR,,0.05,WeatherDisplay:10.37,2013-04-20 00:14:00,
2013-04-19 20:17:00,43.3,29.1,29.54,WNW,292,5.8,5.8,57,0.00,CLR,,0.05,WeatherDisplay:10.37,2013-04-20 00:17:00,
2013-04-19 20:18:00,43.3,29.1,29.54,WNW,292,5.8,5.8,57,0.00,CLR,,0.05,WeatherDisplay:10.37,2013-04-20 00:18:00,
2013-04-19 20:19:00,43.3,29.5,29.54,WSW,248,2.3,3.3,58,0.00,CLR,,0.05,WeatherDisplay:10.37,2013-04-20 00:19:00,
2013-04-19 20:22:00,43.3,29.1,29.54,NNW,338,9.8,9.8,57,0.00,CLR,,0.05,WeatherDisplay:10.37,2013-04-20 00:22:00,
2013-04-19 20:23:00,43.3,29.5,29.54,North,0,9.2,9.2,58,0.00,CLR,,0.05,WeatherDisplay:10.37,2013-04-20 00:23:00,
2013-04-19 20:24:00,43.3,29.5,29.54,WSW,248,5.8,5.8,58,0.00,CLR,,0.05,WeatherDisplay:10.37,2013-04-20 00:24:00,
2013-04-19 20:25:00,43.3,29.1,29.54,WSW,248,6.9,6.9,57,0.00,CLR,,0.05,WeatherDisplay:10.37,2013-04-20 00:25:00,
2013-04-19 20:28:00,43.3,29.1,29.54,NNE,22,1.1,6.4,57,0.00,CLR,,0.05,WeatherDisplay:10.37,2013-04-20 00:28:00,
2013-04-19 20:29:00,43.2,28.9,29.54,West,270,4.6,4.6,57,0.00,CLR,,0.05,WeatherDisplay:10.37,2013-04-20 00:29:00,
2013-04-19 20:30:00,43.2,28.9,29.54,WSW,248,10.4,10.4,57,0.00,CLR,,0.05,WeatherDisplay:10.37,2013-04-20 00:30:00,
2013-04-19 20:33:00,43.2,29.4,29.54,WNW,292,9.2,9.2,58,0.00,CLR,,0.05,WeatherDisplay:10.37,2013-04-20 00:33:00,
2013-04-19 20:34:00,43.2,29.4,29.54,NNE,22,8.1,8.1,58,0.00,CLR,,0.05,WeatherDisplay:10.37,2013-04-20 00:34:00,
2013-04-19 20:35:00,43.2,29.4,29.54,East,90,6.9,6.9,58,0.00,CLR,,0.05,WeatherDisplay:10.37,2013-04-20 00:35:00,
2013-04-19 20:38:00,43.0,28.8,29.54,WNW,292,9.8,9.8,57,0.00,CLR,,0.05,WeatherDisplay:10.37,2013-04-20 00:38:00,
2013-04-19 20:39:00,43.0,29.2,29.54,NNW,338,9.2,9.2,58,0.00,CLR,,0.05,WeatherDisplay:10.37,2013-04-20 00:39:00,
2013-04-19 20:40:00,43.0,29.2,29.57,ESE,112,7.6,7.6,58,0.00,CLR,,0.05,WeatherDisplay:10.37,2013-04-20 00:40:00,
2013-04-19 20:43:00,43.0,28.8,29.57,NW,315,13.0,13.0,57,0.00,CLR,,0.05,WeatherDisplay:10.37,2013-04-20 00:43:00,
2013-04-19 20:44:00,43.2,29.4,29.57,West,270,12.7,12.7,58,0.00,CLR,,0.05,WeatherDisplay:10.37,2013-04-20 00:44:00,
2013-04-19 20:45:00,43.0,29.2,29.57,North,0,6.9,6.9,58,0.00,CLR,,0.05,WeatherDisplay:10.37,2013-04-20 00:45:00,
2013-04-19 20:48:00,43.0,29.2,29.57,NNW,338,9.2,9.2,58,0.00,CLR,,0.05,WeatherDisplay:10.37,2013-04-20 00:48:00,
2013-04-19 20:49:00,43.0,29.2,29.57,NNW,338,8.1,8.1,58,0.00,CLR,,0.05,WeatherDisplay:10.37,2013-04-20 00:49:00,
2013-04-19 20:50:00,43.0,29.2,29.57,WNW,292,11.8,11.8,58,0.00,CLR,,0.05,WeatherDisplay:10.37,2013-04-20 00:50:00,
2013-04-19 20:51:00,43.0,28.8,29.57,WNW,292,17.3,17.3,57,0.00,CLR,,0.05,WeatherDisplay:10.37,2013-04-20 00:51:00,
2013-04-19 20:53:00,43.0,28.8,29.57,SW,225,8.1,8.1,57,0.00,CLR,,0.05,WeatherDisplay:10.37,2013-04-20 00:53:00,
2013-04-19 20:54:00,43.0,28.8,29.57,NW,315,5.8,5.8,57,0.00,CLR,,0.05,WeatherDisplay:10.37,2013-04-20 00:54:00,
2013-04-19 20:55:00,43.0,28.8,29.57,NNW,338,3.5,3.5,57,0.00,CLR,,0.05,WeatherDisplay:10.37,2013-04-20 00:55:00,
2013-04-19 20:56:00,43.0,28.8,29.57,NW,315,2.3,2.3,57,0.00,CLR,,0.05,WeatherDisplay:10.37,2013-04-20 00:56:00,
2013-04-19 20:58:00,43.0,28.8,29.57,ENE,68,8.1,8.1,57,0.00,CLR,,0.05,WeatherDisplay:10.37,2013-04-20 00:58:00,
2013-04-19 20:59:00,43.0,28.8,29.57,North,0,8.1,8.1,57,0.00,CLR,,0.05,WeatherDisplay:10.37,2013-04-20 00:59:00,
2013-04-19 21:00:00,43.0,28.8,29.57,North,0,4.6,4.6,57,0.00,CLR,,0.05,WeatherDisplay:10.37,2013-04-20 01:00:00,
2013-04-19 21:01:00,43.0,29.2,29.57,WSW,248,4.6,4.6,58,0.00,CLR,,0.05,WeatherDisplay:10.37,2013-04-20 01:01:00,
2013-04-19 21:03:00,43.0,29.2,29.57,North,0,9.2,9.2,58,0.00,CLR,,0.05,WeatherDisplay:10.37,2013-04-20 01:03:00,
2013-04-19 21:05:00,42.8,29.0,29.57,NNW,338,1.4,2.4,58,0.00,CLR,,0.05,WeatherDisplay:10.37,2013-04-20 01:05:00,
2013-04-19 21:06:00,42.8,28.6,29.57,WNW,292,9.7,9.7,57,0.00,CLR,,0.05,WeatherDisplay:10.37,2013-04-20 01:06:00,
2013-04-19 21:08:00,42.8,28.6,29.57,East,90,5.8,5.8,57,0.00,CLR,,0.05,WeatherDisplay:10.37,2013-04-20 01:08:00,
2013-04-19 21:10:00,42.8,28.6,29.57,ENE,68,4.6,4.6,57,0.00,CLR,,0.05,WeatherDisplay:10.37,2013-04-20 01:10:00,
2013-04-19 21:11:00,42.8,28.6,29.57,SSW,202,4.6,4.6,57,0.00,CLR,,0.05,WeatherDisplay:10.37,2013-04-20 01:11:00,
2013-04-19 21:13:00,42.8,28.2,29.57,ENE,68,1.4,2.2,56,0.00,CLR,,0.05,WeatherDisplay:10.37,2013-04-20 01:13:00,
2013-04-19 21:15:00,42.8,28.2,29.57,SSE,158,3.6,3.6,56,0.00,CLR,,0.05,WeatherDisplay:10.37,2013-04-20 01:15:00,
2013-04-19 21:16:00,42.8,28.2,29.57,SW,225,3.5,3.5,56,0.00,CLR,,0.05,WeatherDisplay:10.37,2013-04-20 01:16:00,
2013-04-19 21:17:00,42.8,28.2,29.57,SW,225,2.6,2.6,56,0.00,CLR,,0.05,WeatherDisplay:10.37,2013-04-20 01:17:00,
2013-04-19 21:18:00,43.0,28.3,29.57,SW,225,2.6,2.6,56,0.00,CLR,,0.05,WeatherDisplay:10.37,2013-04-20 01:18:00,
2013-04-19 21:20:00,43.0,28.3,29.57,SW,225,2.6,2.6,56,0.00,CLR,,0.05,WeatherDisplay:10.37,2013-04-20 01:20:00,
2013-04-19 21:21:00,43.0,28.3,29.57,SW,225,2.6,2.6,56,0.00,CLR,,0.05,WeatherDisplay:10.37,2013-04-20 01:21:00,
2013-04-19 21:22:00,43.0,28.3,29.57,SW,225,2.6,2.6,56,0.00,CLR,,0.05,WeatherDisplay:10.37,2013-04-20 01:22:00,
2013-04-19 21:24:00,43.0,28.3,29.57,SSE,158,2.3,3.8,56,0.00,CLR,,0.05,WeatherDisplay:10.37,2013-04-20 01:24:00,
2013-04-19 21:25:00,43.0,28.3,29.57,SSE,158,1.1,3.8,56,0.00,CLR,,0.05,WeatherDisplay:10.37,2013-04-20 01:25:00,
2013-04-19 21:26:00,43.2,28.5,29.57,WNW,292,3.6,3.6,56,0.00,CLR,,0.05,WeatherDisplay:10.37,2013-04-20 01:26:00,
2013-04-19 21:27:00,43.2,28.5,29.57,WNW,292,3.6,3.6,56,0.00,CLR,,0.05,WeatherDisplay:10.37,2013-04-20 01:27:00,
2013-04-19 21:29:00,43.2,28.5,29.57,West,270,3.5,4.0,56,0.00,CLR,,0.05,WeatherDisplay:10.37,2013-04-20 01:29:00,
2013-04-19 21:30:00,43.2,28.5,29.57,East,90,3.8,3.8,56,0.00,CLR,,0.05,WeatherDisplay:10.37,2013-04-20 01:30:00,
2013-04-19 21:32:00,43.2,28.5,29.57,ESE,112,2.4,3.3,56,0.00,CLR,,0.05,WeatherDisplay:10.37,2013-04-20 01:32:00,
2013-04-19 21:34:00,43.2,28.5,29.57,NNW,338,6.0,6.0,56,0.00,CLR,,0.05,WeatherDisplay:10.37,2013-04-20 01:34:00,
2013-04-19 21:35:00,43.2,28.5,29.57,NNE,22,5.8,5.8,56,0.00,CLR,,0.05,WeatherDisplay:10.37,2013-04-20 01:35:00,
2013-04-19 21:37:00,43.2,28.5,29.57,NNW,338,1.1,3.3,56,0.00,CLR,,0.05,WeatherDisplay:10.37,2013-04-20 01:37:00,
2013-04-19 21:38:00,43.2,28.1,29.57,NNW,338,1.1,3.3,55,0.00,CLR,,0.05,WeatherDisplay:10.37,2013-04-20 01:38:00,
2013-04-19 21:40:00,43.2,28.1,29.60,West,270,16.1,16.1,55,0.00,CLR,,0.05,WeatherDisplay:10.37,2013-04-20 01:40:00,
2013-04-19 21:42:00,43.2,28.1,29.60,NNE,22,6.9,6.9,55,0.00,CLR,,0.05,WeatherDisplay:10.37,2013-04-20 01:42:00,
2013-04-19 21:43:00,43.2,28.1,29.60,WNW,292,4.3,4.3,55,0.00,CLR,,0.05,WeatherDisplay:10.37,2013-04-20 01:43:00,
2013-04-19 21:45:00,43.2,28.1,29.60,WSW,248,4.6,4.6,55,0.00,CLR,,0.05,WeatherDisplay:10.37,2013-04-20 01:45:00,
2013-04-19 21:46:00,43.2,28.1,29.60,WNW,292,10.4,10.4,55,0.00,CLR,,0.05,WeatherDisplay:10.37,2013-04-20 01:46:00,
2013-04-19 21:47:00,43.2,28.1,29.60,WNW,292,8.7,8.7,55,0.00,CLR,,0.05,WeatherDisplay:10.37,2013-04-20 01:47:00,
2013-04-19 21:49:00,43.3,28.2,29.60,WNW,292,6.0,6.0,55,0.00,CLR,,0.05,WeatherDisplay:10.37,2013-04-20 01:49:00,
2013-04-19 21:50:00,43.3,28.2,29.60,WNW,292,6.9,6.9,55,0.00,CLR,,0.05,WeatherDisplay:10.37,2013-04-20 01:50:00,
2013-04-19 21:51:00,43.2,27.6,29.60,NNW,338,5.8,5.8,54,0.00,CLR,,0.05,WeatherDisplay:10.37,2013-04-20 01:51:00,
2013-04-19 21:52:00,43.2,27.6,29.60,NE,45,6.9,6.9,54,0.00,CLR,,0.05,WeatherDisplay:10.37,2013-04-20 01:52:00,
2013-04-19 21:54:00,43.2,27.6,29.60,WNW,292,5.8,5.8,54,0.00,CLR,,0.05,WeatherDisplay:10.37,2013-04-20 01:54:00,
2013-04-19 21:55:00,43.2,27.6,29.60,WNW,292,4.9,4.9,54,0.00,CLR,,0.05,WeatherDisplay:10.37,2013-04-20 01:55:00,
2013-04-19 21:56:00,43.2,27.6,29.60,West,270,6.0,6.0,54,0.00,CLR,,0.05,WeatherDisplay:10.37,2013-04-20 01:56:00,
2013-04-19 21:57:00,43.2,27.6,29.60,East,90,5.8,5.8,54,0.00,CLR,,0.05,WeatherDisplay:10.37,2013-04-20 01:57:00,
2013-04-19 21:59:00,43.2,27.6,29.60,North,0,8.1,8.1,54,0.00,CLR,,0.05,WeatherDisplay:10.37,2013-04-20 01:59:00,
2013-04-19 22:00:00,43.2,27.6,29.60,NNE,22,8.1,8.1,54,0.00,CLR,,0.05,WeatherDisplay:10.37,2013-04-20 02:00:00,
2013-04-19 22:01:00,43.2,27.6,29.60,NNW,338,2.3,0.0,54,0.00,CLR,,0.05,WeatherDisplay:10.37,2013-04-20 02:01:00,
2013-04-19 22:02:00,43.2,27.2,29.60,NW,315,3.6,3.6,53,0.00,CLR,,0.05,WeatherDisplay:10.37,2013-04-20 02:02:00,
2013-04-19 22:03:00,43.2,27.2,29.60,NW,315,3.6,3.6,53,0.00,CLR,,0.05,WeatherDisplay:10.37,2013-04-20 02:03:00,
2013-04-19 22:04:00,43.2,27.2,29.60,NNE,22,3.5,0.0,53,0.00,CLR,,0.05,WeatherDisplay:10.37,2013-04-20 02:04:00,
2013-04-19 22:05:00,43.2,27.6,29.60,NNE,22,3.5,0.0,54,0.00,CLR,,0.05,WeatherDisplay:10.37,2013-04-20 02:05:00,
2013-04-19 22:06:00,43.2,27.6,29.60,ENE,68,4.6,0.0,54,0.00,CLR,,0.05,WeatherDisplay:10.37,2013-04-20 02:06:00,
2013-04-19 22:08:00,43.2,27.2,29.60,East,90,6.9,6.9,53,0.00,CLR,,0.05,WeatherDisplay:10.37,2013-04-20 02:08:00,
2013-04-19 22:09:00,43.2,27.2,29.60,WNW,292,5.8,5.8,53,0.00,CLR,,0.05,WeatherDisplay:10.37,2013-04-20 02:09:00,
2013-04-19 22:10:00,43.2,27.2,29.60,NNE,22,3.5,3.5,53,0.00,CLR,,0.05,WeatherDisplay:10.37,2013-04-20 02:10:00,
2013-04-19 22:11:00,43.2,27.2,29.60,WNW,292,3.5,3.5,53,0.00,CLR,,0.05,WeatherDisplay:10.37,2013-04-20 02:11:00,
2013-04-19 22:13:00,43.2,27.2,29.60,NNE,22,9.2,9.2,53,0.00,CLR,,0.05,WeatherDisplay:10.37,2013-04-20 02:13:00,
2013-04-19 22:15:00,43.2,26.7,29.60,NNW,338,1.1,1.1,52,0.00,CLR,,0.05,WeatherDisplay:10.37,2013-04-20 02:15:00,
2013-04-19 22:16:00,43.2,26.7,29.60,NNE,22,0.0,3.3,52,0.00,CLR,,0.05,WeatherDisplay:10.37,2013-04-20 02:16:00,
2013-04-19 22:18:00,43.2,26.7,29.60,NW,315,4.6,4.6,52,0.00,CLR,,0.05,WeatherDisplay:10.37,2013-04-20 02:18:00,
2013-04-19 22:20:00,43.2,27.2,29.60,WNW,292,0.0,2.2,53,0.00,CLR,,0.05,WeatherDisplay:10.37,2013-04-20 02:20:00,
2013-04-19 22:21:00,43.2,27.2,29.60,NE,45,4.6,0.0,53,0.00,CLR,,0.05,WeatherDisplay:10.37,2013-04-20 02:21:00,
2013-04-19 22:23:00,43.2,26.7,29.60,ENE,68,5.8,5.8,52,0.00,CLR,,0.05,WeatherDisplay:10.37,2013-04-20 02:23:00,
2013-04-19 22:24:00,43.2,26.7,29.60,ENE,68,3.5,3.5,52,0.00,CLR,,0.05,WeatherDisplay:10.37,2013-04-20 02:24:00,
2013-04-19 22:25:00,43.2,27.2,29.60,NNW,338,4.9,4.9,53,0.00,CLR,,0.05,WeatherDisplay:10.37,2013-04-20 02:25:00,
2013-04-19 22:27:00,43.2,26.7,29.60,NW,315,1.4,0.0,52,0.00,CLR,,0.05,WeatherDisplay:10.37,2013-04-20 02:27:00,
2013-04-19 22:28:00,43.2,26.7,29.60,WNW,292,4.6,4.6,52,0.00,CLR,,0.05,WeatherDisplay:10.37,2013-04-20 02:28:00,
2013-04-19 22:29:00,43.2,26.7,29.60,North,0,6.9,6.9,52,0.00,CLR,,0.05,WeatherDisplay:10.37,2013-04-20 02:29:00,
2013-04-19 22:30:00,43.2,26.7,29.60,ENE,68,9.2,9.2,52,0.00,CLR,,0.05,WeatherDisplay:10.37,2013-04-20 02:30:00,
2013-04-19 22:31:00,43.2,26.2,29.60,WNW,292,8.1,8.1,51,0.00,CLR,,0.05,WeatherDisplay:10.37,2013-04-20 02:31:00,
2013-04-19 22:32:00,43.2,26.2,29.60,West,270,8.1,8.1,51,0.00,CLR,,0.05,WeatherDisplay:10.37,2013-04-20 02:32:00,
2013-04-19 22:33:00,43.2,26.7,29.60,NNE,22,2.0,0.0,52,0.00,CLR,,0.05,WeatherDisplay:10.37,2013-04-20 02:33:00,
2013-04-19 22:34:00,43.2,26.7,29.60,NNE,22,2.3,0.0,52,0.00,CLR,,0.05,WeatherDisplay:10.37,2013-04-20 02:34:00,
2013-04-19 22:35:00,43.2,26.2,29.60,NW,315,5.8,5.8,51,0.00,CLR,,0.05,WeatherDisplay:10.37,2013-04-20 02:35:00,
2013-04-19 22:37:00,43.2,26.2,29.60,WNW,292,5.8,5.8,51,0.00,CLR,,0.05,WeatherDisplay:10.37,2013-04-20 02:37:00,
2013-04-19 22:39:00,43.2,26.2,29.60,NE,45,9.2,9.2,51,0.00,CLR,,0.05,WeatherDisplay:10.37,2013-04-20 02:39:00,
2013-04-19 22:40:00,43.2,26.2,29.63,NW,315,5.9,5.9,51,0.00,CLR,,0.05,WeatherDisplay:10.37,2013-04-20 02:40:00,
2013-04-19 22:42:00,43.2,26.2,29.63,East,90,12.7,12.7,51,0.00,CLR,,0.05,WeatherDisplay:10.37,2013-04-20 02:42:00,
2013-04-19 22:44:00,43.2,26.2,29.63,NNW,338,17.3,17.3,51,0.00,CLR,,0.05,WeatherDisplay:10.37,2013-04-20 02:44:00,
2013-04-19 22:45:00,43.2,26.2,29.63,SW,225,17.3,17.3,51,0.00,CLR,,0.05,WeatherDisplay:10.37,2013-04-20 02:45:00,
2013-04-19 22:47:00,43.0,26.5,29.63,NNW,338,6.9,6.9,52,0.00,CLR,,0.05,WeatherDisplay:10.37,2013-04-20 02:47:00,
2013-04-19 22:49:00,43.0,26.5,29.63,ENE,68,10.4,10.4,52,0.00,CLR,,0.05,WeatherDisplay:10.37,2013-04-20 02:49:00,
2013-04-19 22:50:00,43.0,26.5,29.63,NW,315,10.4,10.4,52,0.00,CLR,,0.05,WeatherDisplay:10.37,2013-04-20 02:50:00,
2013-04-19 22:52:00,43.0,26.5,29.63,NNE,22,5.8,5.8,52,0.00,CLR,,0.05,WeatherDisplay:10.37,2013-04-20 02:52:00,
2013-04-19 22:55:00,43.0,26.5,29.63,North,0,2.3,2.3,52,0.00,CLR,,0.05,WeatherDisplay:10.37,2013-04-20 02:55:00,
2013-04-19 22:56:00,43.0,27.0,29.63,NE,45,2.4,0.0,53,0.00,CLR,,0.05,WeatherDisplay:10.37,2013-04-20 02:56:00,
2013-04-19 22:57:00,43.0,27.0,29.63,ENE,68,9.2,9.2,53,0.00,CLR,,0.05,WeatherDisplay:10.37,2013-04-20 02:57:00,
2013-04-19 22:58:00,43.0,26.5,29.63,North,0,9.2,9.2,52,0.00,CLR,,0.05,WeatherDisplay:10.37,2013-04-20 02:58:00,
2013-04-19 23:00:00,43.0,26.5,29.63,NNW,338,12.7,12.7,52,0.00,CLR,,0.05,WeatherDisplay:10.37,2013-04-20 03:00:00,
2013-04-19 23:01:00,43.0,26.5,29.63,NNW,338,9.2,9.2,52,0.00,CLR,,0.05,WeatherDisplay:10.37,2013-04-20 03:01:00,
2013-04-19 23:02:00,43.0,26.5,29.63,NNW,338,5.8,5.8,52,0.00,CLR,,0.05,WeatherDisplay:10.37,2013-04-20 03:02:00,
2013-04-19 23:03:00,43.0,26.5,29.63,WNW,292,6.9,6.9,52,0.00,CLR,,0.05,WeatherDisplay:10.37,2013-04-20 03:03:00,
2013-04-19 23:05:00,43.0,26.5,29.63,NW,315,8.1,8.1,52,0.00,CLR,,0.05,WeatherDisplay:10.37,2013-04-20 03:05:00,
2013-04-19 23:06:00,43.0,26.5,29.63,NW,315,8.7,8.7,52,0.00,CLR,,0.05,WeatherDisplay:10.37,2013-04-20 03:06:00,
2013-04-19 23:07:00,43.0,26.5,29.63,West,270,9.2,9.2,52,0.00,CLR,,0.05,WeatherDisplay:10.37,2013-04-20 03:07:00,
2013-04-19 23:08:00,43.0,26.5,29.63,North,0,3.5,3.5,52,0.00,CLR,,0.05,WeatherDisplay:10.37,2013-04-20 03:08:00,
2013-04-19 23:10:00,43.0,26.5,29.63,WNW,292,6.9,6.9,52,0.00,CLR,,0.05,WeatherDisplay:10.37,2013-04-20 03:10:00,
2013-04-19 23:11:00,43.0,26.5,29.63,WSW,248,9.2,9.2,52,0.00,CLR,,0.05,WeatherDisplay:10.37,2013-04-20 03:11:00,
2013-04-19 23:12:00,42.8,26.4,29.63,SW,225,7.6,7.6,52,0.00,CLR,,0.05,WeatherDisplay:10.37,2013-04-20 03:12:00,
2013-04-19 23:14:00,42.8,26.4,29.63,NNW,338,8.5,8.5,52,0.00,CLR,,0.05,WeatherDisplay:10.37,2013-04-20 03:14:00,
2013-04-19 23:15:00,42.8,26.4,29.63,WNW,292,18.4,18.4,52,0.00,CLR,,0.05,WeatherDisplay:10.37,2013-04-20 03:15:00,
2013-04-19 23:16:00,42.8,26.4,29.63,SW,225,8.1,8.1,52,0.00,CLR,,0.05,WeatherDisplay:10.37,2013-04-20 03:16:00,
2013-04-19 23:17:00,42.8,26.4,29.63,East,90,8.1,8.1,52,0.00,CLR,,0.05,WeatherDisplay:10.37,2013-04-20 03:17:00,
2013-04-19 23:18:00,42.8,26.8,29.63,SSW,202,2.3,2.4,53,0.00,CLR,,0.05,WeatherDisplay:10.37,2013-04-20 03:18:00,
2013-04-19 23:19:00,42.8,26.4,29.63,NNW,338,2.3,2.3,52,0.00,CLR,,0.05,WeatherDisplay:10.37,2013-04-20 03:19:00,
2013-04-19 23:20:00,42.8,26.4,29.63,East,90,8.1,8.1,52,0.00,CLR,,0.05,WeatherDisplay:10.37,2013-04-20 03:20:00,
2013-04-19 23:21:00,42.8,26.8,29.63,WNW,292,5.8,5.8,53,0.00,CLR,,0.05,WeatherDisplay:10.37,2013-04-20 03:21:00,
2013-04-19 23:22:00,42.8,26.8,29.63,SSE,158,4.6,4.6,53,0.00,CLR,,0.05,WeatherDisplay:10.37,2013-04-20 03:22:00,
2013-04-19 23:23:00,42.8,26.8,29.63,West,270,5.8,0.0,53,0.00,CLR,,0.05,WeatherDisplay:10.37,2013-04-20 03:23:00,
2013-04-19 23:24:00,42.8,26.4,29.63,NNE,22,10.4,10.4,52,0.00,CLR,,0.05,WeatherDisplay:10.37,2013-04-20 03:24:00,
2013-04-19 23:25:00,42.8,26.4,29.63,WNW,292,5.8,5.8,52,0.00,CLR,,0.05,WeatherDisplay:10.37,2013-04-20 03:25:00,
2013-04-19 23:26:00,42.8,26.8,29.63,West,270,3.5,3.5,53,0.00,CLR,,0.05,WeatherDisplay:10.37,2013-04-20 03:26:00,
2013-04-19 23:27:00,42.8,26.8,29.63,NW,315,6.9,6.9,53,0.00,CLR,,0.05,WeatherDisplay:10.37,2013-04-20 03:27:00,
2013-04-19 23:28:00,42.8,26.8,29.63,SW,225,9.2,9.2,53,0.00,CLR,,0.05,WeatherDisplay:10.37,2013-04-20 03:28:00,
2013-04-19 23:29:00,42.8,26.8,29.63,NW,315,3.5,3.5,53,0.00,CLR,,0.05,WeatherDisplay:10.37,2013-04-20 03:29:00,
2013-04-19 23:31:00,42.8,26.8,29.63,NNE,22,5.8,5.8,53,0.00,CLR,,0.05,WeatherDisplay:10.37,2013-04-20 03:31:00,
2013-04-19 23:32:00,42.8,26.4,29.63,NNE,22,6.4,6.4,52,0.00,CLR,,0.05,WeatherDisplay:10.37,2013-04-20 03:32:00,
2013-04-19 23:34:00,42.8,26.4,29.63,NNE,22,6.9,6.9,52,0.00,CLR,,0.05,WeatherDisplay:10.37,2013-04-20 03:34:00,
2013-04-19 23:35:00,42.8,26.4,29.63,ESE,112,5.8,5.8,52,0.00,CLR,,0.05,WeatherDisplay:10.37,2013-04-20 03:35:00,
2013-04-19 23:36:00,42.8,26.4,29.63,NNW,338,8.5,8.5,52,0.00,CLR,,0.05,WeatherDisplay:10.37,2013-04-20 03:36:00,
2013-04-19 23:37:00,42.8,26.4,29.63,NNW,338,8.1,8.1,52,0.00,CLR,,0.05,WeatherDisplay:10.37,2013-04-20 03:37:00,
2013-04-19 23:39:00,42.8,26.4,29.63,NNW,338,4.6,4.6,52,0.00,CLR,,0.05,WeatherDisplay:10.37,2013-04-20 03:39:00,
2013-04-19 23:40:00,42.8,26.4,29.63,North,0,3.1,0.0,52,0.00,CLR,,0.05,WeatherDisplay:10.37,2013-04-20 03:40:00,
2013-04-19 23:41:00,42.8,26.4,29.63,West,270,3.5,3.5,52,0.00,CLR,,0.05,WeatherDisplay:10.37,2013-04-20 03:41:00,
2013-04-19 23:42:00,42.8,26.4,29.63,NNW,338,3.5,3.5,52,0.00,CLR,,0.05,WeatherDisplay:10.37,2013-04-20 03:42:00,
2013-04-19 23:44:00,42.8,26.4,29.63,NNW,338,2.3,2.4,52,0.00,CLR,,0.05,WeatherDisplay:10.37,2013-04-20 03:44:00,
2013-04-19 23:45:00,42.8,26.4,29.63,WNW,292,3.6,3.6,52,0.00,CLR,,0.05,WeatherDisplay:10.37,2013-04-20 03:45:00,
2013-04-19 23:46:00,42.8,26.4,29.63,NNW,338,6.9,6.9,52,0.00,CLR,,0.05,WeatherDisplay:10.37,2013-04-20 03:46:00,
2013-04-19 23:47:00,42.6,26.2,29.63,WNW,292,6.9,6.9,52,0.00,CLR,,0.05,WeatherDisplay:10.37,2013-04-20 03:47:00,
2013-04-19 23:50:00,42.8,25.9,29.63,ENE,68,1.1,0.0,51,0.00,CLR,,0.05,WeatherDisplay:10.37,2013-04-20 03:50:00,
2013-04-19 23:51:00,42.6,26.2,29.63,WNW,292,0.0,0.0,52,0.00,CLR,,0.05,WeatherDisplay:10.37,2013-04-20 03:51:00,
2013-04-19 23:52:00,42.6,26.2,29.63,NNW,338,3.5,3.5,52,0.00,CLR,,0.05,WeatherDisplay:10.37,2013-04-20 03:52:00,
2013-04-19 23:53:00,42.6,26.2,29.63,NNW,338,4.6,4.6,52,0.00,CLR,,0.05,WeatherDisplay:10.37,2013-04-20 03:53:00,
2013-04-19 23:56:00,42.6,26.2,29.63,WNW,292,5.8,5.8,52,0.00,CLR,,0.05,WeatherDisplay:10.37,2013-04-20 03:56:00,
2013-04-19 23:57:00,42.6,26.2,29.63,NNW,338,8.1,8.1,52,0.00,CLR,,0.05,WeatherDisplay:10.37,2013-04-20 03:57:00,
2013-04-19 23:58:00,42.6,26.2,29.63,NW,315,8.1,8.1,52,0.00,CLR,,0.05,WeatherDisplay:10.37,2013-04-20 03:58:00,